Observation data for Coyanosa on 11/19/2019      Previous  Date  Next       Current Mesonet Observations  Soil Data  Daily Summary Page  Observations in Plain Language
KCO1 190600Z 23004KT 09/00 A2997 RMK A01 T00870002  RH  055%=      5-min Rain = 0
KCO1 190601Z 22004KT 09/00 A2997 RMK A01 T00870002  RH  055%=      5-min Rain = 0
KCO1 190602Z 21004KT 09/00 A2997 RMK A01 T00870002  RH  055%=      5-min Rain = 0
KCO1 190603Z 20004KT 09/00 A2997 RMK A01 T00860002  RH  055%=      5-min Rain = 0
KCO1 190604Z 20005KT 09/00 A2997 RMK A01 T00860002  RH  056%=      5-min Rain = 0
KCO1 190605Z 19006KT 09/00 A2997 RMK A01 T00850002  RH  056%=      5-min Rain = 0
KCO1 190606Z 19006KT 08/00 A2997 RMK A01 T00840002  RH  056%=      5-min Rain = 0
KCO1 190607Z 21006KT 08/00 A2997 RMK A01 T00830002  RH  057%=      5-min Rain = 0
KCO1 190608Z 22006KT 08/00 A2997 RMK A01 T00820003  RH  057%=      5-min Rain = 0
KCO1 190609Z 23006KT 08/00 A2997 RMK A01 T00820003  RH  057%=      5-min Rain = 0
KCO1 190610Z 23006KT 08/00 A2997 RMK A01 T00820003  RH  057%=      5-min Rain = 0
KCO1 190611Z 23006KT 08/00 A2997 RMK A01 T00820002  RH  057%=      5-min Rain = 0
KCO1 190612Z 23006KT 08/00 A2997 RMK A01 T00820002  RH  057%=      5-min Rain = 0
KCO1 190613Z 22006KT 08/00 A2997 RMK A01 T00820003  RH  058%=      5-min Rain = 0
KCO1 190614Z 22006KT 08/00 A2997 RMK A01 T00820004  RH  058%=      5-min Rain = 0
KCO1 190615Z 22007KT 08/00 A2997 RMK A01 T00810003  RH  058%=      5-min Rain = 0
KCO1 190616Z 22007KT 08/00 A2997 RMK A01 T00810003  RH  058%=      5-min Rain = 0
KCO1 190617Z 22006KT 08/00 A2997 RMK A01 T00810003  RH  058%=      5-min Rain = 0
KCO1 190618Z 22006KT 08/00 A2997 RMK A01 T00810004  RH  058%=      5-min Rain = 0
KCO1 190619Z 22006KT 08/00 A2997 RMK A01 T00810004  RH  058%=      5-min Rain = 0
KCO1 190620Z 22006KT 08/00 A2997 RMK A01 T00810003  RH  058%=      5-min Rain = 0
KCO1 190621Z 21006KT 08/00 A2997 RMK A01 T00810004  RH  058%=      5-min Rain = 0
KCO1 190622Z 21006KT 08/00 A2997 RMK A01 T00810004  RH  058%=      5-min Rain = 0
KCO1 190623Z 21007KT 08/00 A2997 RMK A01 T00810003  RH  058%=      5-min Rain = 0
KCO1 190624Z 21007KT 08/00 A2997 RMK A01 T00800004  RH  058%=      5-min Rain = 0
KCO1 190625Z 21006KT 08/00 A2997 RMK A01 T00800004  RH  058%=      5-min Rain = 0
KCO1 190626Z 21006KT 08/00 A2997 RMK A01 T00800004  RH  059%=      5-min Rain = 0
KCO1 190627Z 21007KT 08/00 A2997 RMK A01 T00800004  RH  059%=      5-min Rain = 0
KCO1 190628Z 21007KT 08/00 A2997 RMK A01 T00800003  RH  058%=      5-min Rain = 0
KCO1 190629Z 21007KT 08/00 A2997 RMK A01 T00800003  RH  058%=      5-min Rain = 0
KCO1 190630Z 22007KT 08/00 A2997 RMK A01 T00810003  RH  058%=      5-min Rain = 0
KCO1 190631Z 22007KT 08/00 A2997 RMK A01 T00820003  RH  057%=      5-min Rain = 0
KCO1 190632Z 21007KT 08/00 A2997 RMK A01 T00820002  RH  057%=      5-min Rain = 0
KCO1 190633Z 22007KT 08/00 A2997 RMK A01 T00820003  RH  057%=      5-min Rain = 0
KCO1 190634Z 22007KT 08/00 A2997 RMK A01 T00810002  RH  058%=      5-min Rain = 0
KCO1 190635Z 22006KT 08/00 A2997 RMK A01 T00810003  RH  058%=      5-min Rain = 0
KCO1 190636Z 22005KT 08/00 A2997 RMK A01 T00810003  RH  058%=      5-min Rain = 0
KCO1 190637Z 22004KT 08/00 A2997 RMK A01 T00820003  RH  058%=      5-min Rain = 0
KCO1 190638Z 22004KT 08/00 A2997 RMK A01 T00810002  RH  057%=      5-min Rain = 0
KCO1 190639Z 22004KT 08/00 A2997 RMK A01 T00810002  RH  057%=      5-min Rain = 0
KCO1 190640Z 22004KT 08/00 A2997 RMK A01 T00810002  RH  057%=      5-min Rain = 0
KCO1 190641Z 22004KT 08/00 A2997 RMK A01 T00810002  RH  057%=      5-min Rain = 0
KCO1 190642Z 22004KT 08/00 A2997 RMK A01 T00810002  RH  058%=      5-min Rain = 0
KCO1 190643Z 21005KT 08/00 A2997 RMK A01 T00800002  RH  058%=      5-min Rain = 0
KCO1 190644Z 21005KT 08/00 A2997 RMK A01 T00800002  RH  058%=      5-min Rain = 0
KCO1 190645Z 21005KT 08/00 A2997 RMK A01 T00800002  RH  058%=      5-min Rain = 0
KCO1 190646Z 21005KT 08/00 A2997 RMK A01 T00800002  RH  058%=      5-min Rain = 0
KCO1 190647Z 20005KT 08/00 A2997 RMK A01 T00800001  RH  057%=      5-min Rain = 0
KCO1 190648Z 19004KT 08/00 A2997 RMK A01 T00810002  RH  057%=      5-min Rain = 0
KCO1 190649Z 19003KT 08/00 A2997 RMK A01 T00820002  RH  057%=      5-min Rain = 0
KCO1 190650Z 18003KT 08/00 A2997 RMK A01 T00810002  RH  057%=      5-min Rain = 0
KCO1 190651Z 19004KT 08/00 A2997 RMK A01 T00800002  RH  058%=      5-min Rain = 0
KCO1 190652Z 20004KT 08/00 A2997 RMK A01 T00780001  RH  058%=      5-min Rain = 0
KCO1 190653Z 20004KT 08/00 A2997 RMK A01 T00780001  RH  058%=      5-min Rain = 0
KCO1 190654Z 21004KT 08/00 A2997 RMK A01 T00770001  RH  059%=      5-min Rain = 0
KCO1 190655Z 20004KT 08/00 A2997 RMK A01 T00770001  RH  059%=      5-min Rain = 0
KCO1 190656Z 21004KT 08/00 A2997 RMK A01 T00770001  RH  059%=      5-min Rain = 0
KCO1 190657Z 22005KT 08/00 A2997 RMK A01 T00770002  RH  059%=      5-min Rain = 0
KCO1 190658Z 22005KT 08/00 A2997 RMK A01 T00760002  RH  059%=      5-min Rain = 0
KCO1 190659Z 21004KT 08/00 A2997 RMK A01 T00760002  RH  060%=      5-min Rain = 0
KCO1 190700Z 21004KT 08/00 A2997 RMK A01 T00750002  RH  060%=      5-min Rain = 0
KCO1 190701Z 21004KT 08/00 A2997 RMK A01 T00750002  RH  060%=      5-min Rain = 0
KCO1 190702Z 21005KT 08/00 A2997 RMK A01 T00750001  RH  059%=      5-min Rain = 0
KCO1 190703Z 21005KT 08/00 A2997 RMK A01 T00760001  RH  059%=      5-min Rain = 0
KCO1 190704Z 22005KT 08/00 A2997 RMK A01 T00760001  RH  059%=      5-min Rain = 0
KCO1 190705Z 22005KT 08/00 A2997 RMK A01 T00770001  RH  059%=      5-min Rain = 0
KCO1 190706Z 22005KT 08/00 A2997 RMK A01 T00780001  RH  058%=      5-min Rain = 0
KCO1 190707Z 22005KT 08/00 A2997 RMK A01 T00790001  RH  058%=      5-min Rain = 0
KCO1 190708Z 22006KT 08/00 A2997 RMK A01 T00790000  RH  058%=      5-min Rain = 0
KCO1 190709Z 22006KT 08/00 A2997 RMK A01 T00790000  RH  057%=      5-min Rain = 0
KCO1 190710Z 22006KT 08/00 A2997 RMK A01 T00790000  RH  057%=      5-min Rain = 0
KCO1 190711Z 22007KT 08/00 A2997 RMK A01 T00800001  RH  057%=      5-min Rain = 0
KCO1 190712Z 22007KT 08/00 A2997 RMK A01 T00790001  RH  057%=      5-min Rain = 0
KCO1 190713Z 22007KT 08/00 A2997 RMK A01 T00790001  RH  058%=      5-min Rain = 0
KCO1 190714Z 22007KT 08/00 A2997 RMK A01 T00790001  RH  058%=      5-min Rain = 0
KCO1 190715Z 22007KT 08/00 A2997 RMK A01 T00790001  RH  058%=      5-min Rain = 0
KCO1 190716Z 22007KT 08/00 A2997 RMK A01 T00790001  RH  058%=      5-min Rain = 0
KCO1 190717Z 22006KT 08/00 A2997 RMK A01 T00800002  RH  058%=      5-min Rain = 0
KCO1 190718Z 22005KT 08/00 A2997 RMK A01 T00800001  RH  058%=      5-min Rain = 0
KCO1 190719Z 22006KT 08/00 A2997 RMK A01 T00800001  RH  058%=      5-min Rain = 0
KCO1 190720Z 22006KT 08/00 A2997 RMK A01 T00790001  RH  058%=      5-min Rain = 0
KCO1 190721Z 23006KT 08/00 A2997 RMK A01 T00800002  RH  058%=      5-min Rain = 0
KCO1 190722Z 23006KT 08/00 A2997 RMK A01 T00800002  RH  058%=      5-min Rain = 0
KCO1 190723Z 23006KT 08/00 A2997 RMK A01 T00800002  RH  058%=      5-min Rain = 0
KCO1 190724Z 23006KT 08/00 A2997 RMK A01 T00800003  RH  058%=      5-min Rain = 0
KCO1 190725Z 23006KT 08/00 A2997 RMK A01 T00800003  RH  058%=      5-min Rain = 0
KCO1 190726Z 23006KT 08/00 A2997 RMK A01 T00800003  RH  058%=      5-min Rain = 0
KCO1 190727Z 23006KT 08/00 A2997 RMK A01 T00800002  RH  058%=      5-min Rain = 0
KCO1 190728Z 23007KT 08/00 A2997 RMK A01 T00810003  RH  058%=      5-min Rain = 0
KCO1 190729Z 23006KT 08/00 A2997 RMK A01 T00810003  RH  058%=      5-min Rain = 0
KCO1 190730Z 23006KT 08/00 A2997 RMK A01 T00830003  RH  057%=      5-min Rain = 0
KCO1 190731Z 22006KT 08/00 A2997 RMK A01 T00840003  RH  057%=      5-min Rain = 0
KCO1 190732Z 22007KT 09/00 A2997 RMK A01 T00850003  RH  056%=      5-min Rain = 0
KCO1 190733Z 23006KT 09/00 A2997 RMK A01 T00860002  RH  056%=      5-min Rain = 0
KCO1 190734Z 23007KT 09/00 A2997 RMK A01 T00860002  RH  055%=      5-min Rain = 0
KCO1 190735Z 23006KT 09/00 A2997 RMK A01 T00870002  RH  055%=      5-min Rain = 0
KCO1 190736Z 23006KT 09/00 A2997 RMK A01 T00870002  RH  055%=      5-min Rain = 0
KCO1 190737Z 23006KT 09/00 A2997 RMK A01 T00870003  RH  055%=      5-min Rain = 0
KCO1 190738Z 23006KT 09/00 A2997 RMK A01 T00870003  RH  056%=      5-min Rain = 0
KCO1 190739Z 23007KT 09/00 A2997 RMK A01 T00860003  RH  056%=      5-min Rain = 0
KCO1 190740Z 22007KT 09/00 A2997 RMK A01 T00860002  RH  056%=      5-min Rain = 0
KCO1 190741Z 22007KT 09/00 A2996 RMK A01 T00850002  RH  056%=      5-min Rain = 0
KCO1 190742Z 22007KT 09/00 A2996 RMK A01 T00850003  RH  056%=      5-min Rain = 0
KCO1 190743Z 22008KT 08/00 A2997 RMK A01 T00840002  RH  056%=      5-min Rain = 0
KCO1 190744Z 22008KT 08/00 A2997 RMK A01 T00840002  RH  056%=      5-min Rain = 0
KCO1 190745Z 22007KT 08/00 A2997 RMK A01 T00840002  RH  056%=      5-min Rain = 0
KCO1 190746Z 21007KT 08/00 A2997 RMK A01 T00840002  RH  056%=      5-min Rain = 0
KCO1 190747Z 22006KT 08/00 A2997 RMK A01 T00840002  RH  056%=      5-min Rain = 0
KCO1 190748Z 22006KT 08/00 A2997 RMK A01 T00840002  RH  056%=      5-min Rain = 0
KCO1 190749Z 22005KT 08/00 A2997 RMK A01 T00840002  RH  056%=      5-min Rain = 0
KCO1 190750Z 22005KT 08/00 A2997 RMK A01 T00830002  RH  057%=      5-min Rain = 0
KCO1 190751Z 22004KT 08/00 A2997 RMK A01 T00830002  RH  057%=      5-min Rain = 0
KCO1 190752Z 20004KT 08/00 A2997 RMK A01 T00830002  RH  057%=      5-min Rain = 0
KCO1 190753Z 20003KT 08/00 A2997 RMK A01 T00820002  RH  057%=      5-min Rain = 0
KCO1 190754Z 21004KT 08/00 A2997 RMK A01 T00810002  RH  057%=      5-min Rain = 0
KCO1 190755Z 23003KT 08/00 A2997 RMK A01 T00800002  RH  058%=      5-min Rain = 0
KCO1 190756Z 24003KT 08/00 A2997 RMK A01 T00790002  RH  058%=      5-min Rain = 0
KCO1 190757Z 23004KT 08/00 A2997 RMK A01 T00790001  RH  058%=      5-min Rain = 0
KCO1 190758Z 22004KT 08/00 A2997 RMK A01 T00790001  RH  058%=      5-min Rain = 0
KCO1 190759Z 21005KT 08/00 A2997 RMK A01 T00790002  RH  058%=      5-min Rain = 0
KCO1 190800Z 21005KT 08/00 A2997 RMK A01 T00780003  RH  059%=      5-min Rain = 0
KCO1 190801Z 21006KT 08/00 A2997 RMK A01 T00780003  RH  059%=      5-min Rain = 0
KCO1 190802Z 21007KT 08/00 A2997 RMK A01 T00780003  RH  059%=      5-min Rain = 0
KCO1 190803Z 21007KT 08/00 A2997 RMK A01 T00780003  RH  059%=      5-min Rain = 0
KCO1 190804Z 21007KT 08/00 A2997 RMK A01 T00790003  RH  059%=      5-min Rain = 0
KCO1 190805Z 21006KT 08/00 A2997 RMK A01 T00790003  RH  059%=      5-min Rain = 0
KCO1 190806Z 21006KT 08/00 A2997 RMK A01 T00780003  RH  059%=      5-min Rain = 0
KCO1 190807Z 21005KT 08/00 A2997 RMK A01 T00770003  RH  059%=      5-min Rain = 0
KCO1 190808Z 22005KT 08/00 A2997 RMK A01 T00770003  RH  059%=      5-min Rain = 0
KCO1 190809Z 21005KT 08/00 A2997 RMK A01 T00770003  RH  059%=      5-min Rain = 0
KCO1 190810Z 21005KT 08/00 A2997 RMK A01 T00770003  RH  059%=      5-min Rain = 0
KCO1 190811Z 21005KT 08/00 A2997 RMK A01 T00760003  RH  060%=      5-min Rain = 0
KCO1 190812Z 21005KT 08/00 A2997 RMK A01 T00760003  RH  060%=      5-min Rain = 0
KCO1 190813Z 21005KT 08/00 A2997 RMK A01 T00750004  RH  060%=      5-min Rain = 0
KCO1 190814Z 21006KT 07/00 A2997 RMK A01 T00740003  RH  061%=      5-min Rain = 0
KCO1 190815Z 21006KT 07/00 A2997 RMK A01 T00730003  RH  061%=      5-min Rain = 0
KCO1 190816Z 21007KT 07/00 A2997 RMK A01 T00730004  RH  062%=      5-min Rain = 0
KCO1 190817Z 21006KT 07/00 A2997 RMK A01 T00720003  RH  062%=      5-min Rain = 0
KCO1 190818Z 21006KT 07/00 A2997 RMK A01 T00720003  RH  062%=      5-min Rain = 0
KCO1 190819Z 21007KT 07/00 A2997 RMK A01 T00720004  RH  062%=      5-min Rain = 0
KCO1 190820Z 21007KT 07/00 A2997 RMK A01 T00720004  RH  062%=      5-min Rain = 0
KCO1 190821Z 21007KT 07/00 A2997 RMK A01 T00720003  RH  062%=      5-min Rain = 0
KCO1 190822Z 22006KT 07/00 A2997 RMK A01 T00720003  RH  062%=      5-min Rain = 0
KCO1 190823Z 21005KT 07/00 A2997 RMK A01 T00720003  RH  062%=      5-min Rain = 0
KCO1 190824Z 21005KT 07/00 A2997 RMK A01 T00710003  RH  062%=      5-min Rain = 0
KCO1 190825Z 21005KT 07/00 A2997 RMK A01 T00710003  RH  062%=      5-min Rain = 0
KCO1 190826Z 21004KT 07/00 A2997 RMK A01 T00710003  RH  062%=      5-min Rain = 0
KCO1 190827Z 21004KT 07/00 A2997 RMK A01 T00700003  RH  062%=      5-min Rain = 0
KCO1 190828Z 21004KT 07/00 A2997 RMK A01 T00690003  RH  063%=      5-min Rain = 0
KCO1 190829Z 21004KT 07/00 A2997 RMK A01 T00690003  RH  063%=      5-min Rain = 0
KCO1 190830Z 21004KT 07/00 A2997 RMK A01 T00670003  RH  064%=      5-min Rain = 0
KCO1 190831Z 20004KT 07/00 A2997 RMK A01 T00660004  RH  064%=      5-min Rain = 0
KCO1 190832Z 20004KT 07/00 A2997 RMK A01 T00650003  RH  065%=      5-min Rain = 0
KCO1 190833Z 20004KT 07/00 A2997 RMK A01 T00650004  RH  065%=      5-min Rain = 0
KCO1 190834Z 19003KT 06/00 A2997 RMK A01 T00640004  RH  065%=      5-min Rain = 0
KCO1 190835Z 11001KT 06/00 A2997 RMK A01 T00630004  RH  066%=      5-min Rain = 0
KCO1 190836Z 13002KT 06/00 A2997 RMK A01 T00610004  RH  067%=      5-min Rain = 0
KCO1 190837Z 18003KT 06/00 A2997 RMK A01 T00600004  RH  067%=      5-min Rain = 0
KCO1 190838Z 19003KT 06/00 A2997 RMK A01 T00610004  RH  067%=      5-min Rain = 0
KCO1 190839Z 19003KT 06/00 A2997 RMK A01 T00620004  RH  066%=      5-min Rain = 0
KCO1 190840Z 19001KT 06/00 A2997 RMK A01 T00630004  RH  066%=      5-min Rain = 0
KCO1 190841Z 08000KT 06/00 A2997 RMK A01 T00620004  RH  066%=      5-min Rain = 0
KCO1 190842Z 13001KT 06/01 A2997 RMK A01 T00620005  RH  067%=      5-min Rain = 0
KCO1 190843Z 19001KT 06/01 A2997 RMK A01 T00620005  RH  066%=      5-min Rain = 0
KCO1 190844Z 20002KT 06/00 A2997 RMK A01 T00630004  RH  066%=      5-min Rain = 0
KCO1 190845Z 20002KT 06/00 A2997 RMK A01 T00630004  RH  066%=      5-min Rain = 0
KCO1 190846Z 20002KT 06/00 A2997 RMK A01 T00630004  RH  066%=      5-min Rain = 0
KCO1 190847Z 20002KT 06/00 A2997 RMK A01 T00620004  RH  066%=      5-min Rain = 0
KCO1 190848Z 20002KT 06/00 A2997 RMK A01 T00610004  RH  067%=      5-min Rain = 0
KCO1 190849Z 20002KT 06/01 A2997 RMK A01 T00610005  RH  067%=      5-min Rain = 0
KCO1 190850Z 20002KT 06/01 A2997 RMK A01 T00610005  RH  067%=      5-min Rain = 0
KCO1 190851Z 20002KT 06/00 A2997 RMK A01 T00600004  RH  067%=      5-min Rain = 0
KCO1 190852Z 21002KT 06/00 A2997 RMK A01 T00600004  RH  067%=      5-min Rain = 0
KCO1 190853Z 21002KT 06/00 A2997 RMK A01 T00600004  RH  067%=      5-min Rain = 0
KCO1 190854Z 21002KT 06/00 A2997 RMK A01 T00600003  RH  067%=      5-min Rain = 0
KCO1 190855Z 20002KT 06/00 A2997 RMK A01 T00590003  RH  067%=      5-min Rain = 0
KCO1 190856Z 20003KT 06/00 A2997 RMK A01 T00580003  RH  068%=      5-min Rain = 0
KCO1 190857Z 20003KT 06/00 A2997 RMK A01 T00570003  RH  068%=      5-min Rain = 0
KCO1 190858Z 20003KT 06/00 A2997 RMK A01 T00560003  RH  068%=      5-min Rain = 0
KCO1 190859Z 20003KT 06/00 A2997 RMK A01 T00550003  RH  069%=      5-min Rain = 0
KCO1 190900Z 19003KT 05/00 A2997 RMK A01 T00540003  RH  070%=      5-min Rain = 0
KCO1 190901Z 19003KT 05/00 A2997 RMK A01 T00540003  RH  070%=      5-min Rain = 0
KCO1 190902Z 19003KT 05/00 A2997 RMK A01 T00530003  RH  070%=      5-min Rain = 0
KCO1 190903Z 18003KT 05/00 A2997 RMK A01 T00530003  RH  070%=      5-min Rain = 0
KCO1 190904Z 18004KT 05/00 A2997 RMK A01 T00520003  RH  071%=      5-min Rain = 0
KCO1 190905Z 19004KT 05/00 A2997 RMK A01 T00510003  RH  071%=      5-min Rain = 0
KCO1 190906Z 19004KT 05/00 A2997 RMK A01 T00500003  RH  072%=      5-min Rain = 0
KCO1 190907Z 19003KT 05/00 A2997 RMK A01 T00500004  RH  072%=      5-min Rain = 0
KCO1 190908Z 19003KT 05/00 A2997 RMK A01 T00500004  RH  072%=      5-min Rain = 0
KCO1 190909Z 18004KT 05/00 A2996 RMK A01 T00500004  RH  072%=      5-min Rain = 0
KCO1 190910Z 19004KT 05/00 A2996 RMK A01 T00500004  RH  072%=      5-min Rain = 0
KCO1 190911Z 19004KT 05/01 A2996 RMK A01 T00500005  RH  072%=      5-min Rain = 0
KCO1 190912Z 20004KT 05/01 A2996 RMK A01 T00520005  RH  072%=      5-min Rain = 0
KCO1 190913Z 21005KT 05/01 A2996 RMK A01 T00530005  RH  071%=      5-min Rain = 0
KCO1 190914Z 21005KT 05/01 A2996 RMK A01 T00540005  RH  071%=      5-min Rain = 0
KCO1 190915Z 21005KT 06/01 A2996 RMK A01 T00550005  RH  070%=      5-min Rain = 0
KCO1 190916Z 21005KT 06/01 A2996 RMK A01 T00560005  RH  070%=      5-min Rain = 0
KCO1 190917Z 21005KT 06/01 A2996 RMK A01 T00560005  RH  070%=      5-min Rain = 0
KCO1 190918Z 21005KT 06/01 A2996 RMK A01 T00570005  RH  070%=      5-min Rain = 0
KCO1 190919Z 21005KT 06/01 A2996 RMK A01 T00570005  RH  069%=      5-min Rain = 0
KCO1 190920Z 20005KT 06/00 A2996 RMK A01 T00560004  RH  069%=      5-min Rain = 0
KCO1 190921Z 20005KT 06/00 A2996 RMK A01 T00560004  RH  069%=      5-min Rain = 0
KCO1 190922Z 20004KT 06/00 A2996 RMK A01 T00550004  RH  070%=      5-min Rain = 0
KCO1 190923Z 19004KT 05/01 A2997 RMK A01 T00540005  RH  070%=      5-min Rain = 0
KCO1 190924Z 19004KT 05/00 A2997 RMK A01 T00540004  RH  070%=      5-min Rain = 0
KCO1 190925Z 19004KT 05/01 A2997 RMK A01 T00540005  RH  071%=      5-min Rain = 0
KCO1 190926Z 19004KT 05/01 A2997 RMK A01 T00540005  RH  071%=      5-min Rain = 0
KCO1 190927Z 18004KT 05/01 A2997 RMK A01 T00540005  RH  071%=      5-min Rain = 0
KCO1 190928Z 18004KT 05/01 A2997 RMK A01 T00530005  RH  071%=      5-min Rain = 0
KCO1 190929Z 18005KT 05/01 A2997 RMK A01 T00540005  RH  071%=      5-min Rain = 0
KCO1 190930Z 18005KT 05/01 A2997 RMK A01 T00530005  RH  071%=      5-min Rain = 0
KCO1 190931Z 18005KT 05/01 A2997 RMK A01 T00530005  RH  071%=      5-min Rain = 0
KCO1 190932Z 18006KT 05/01 A2997 RMK A01 T00540006  RH  071%=      5-min Rain = 0
KCO1 190933Z 19006KT 06/01 A2997 RMK A01 T00560007  RH  071%=      5-min Rain = 0
KCO1 190934Z 18006KT 06/01 A2997 RMK A01 T00570007  RH  070%=      5-min Rain = 0
KCO1 190935Z 18005KT 06/01 A2997 RMK A01 T00580007  RH  069%=      5-min Rain = 0
KCO1 190936Z 18005KT 06/01 A2997 RMK A01 T00590007  RH  069%=      5-min Rain = 0
KCO1 190937Z 18005KT 06/01 A2997 RMK A01 T00580007  RH  069%=      5-min Rain = 0
KCO1 190938Z 18005KT 06/01 A2997 RMK A01 T00580007  RH  070%=      5-min Rain = 0
KCO1 190939Z 18005KT 06/01 A2997 RMK A01 T00580007  RH  070%=      5-min Rain = 0
KCO1 190940Z 18005KT 06/01 A2997 RMK A01 T00580006  RH  069%=      5-min Rain = 0
KCO1 190941Z 19005KT 06/01 A2997 RMK A01 T00580006  RH  069%=      5-min Rain = 0
KCO1 190942Z 19006KT 06/01 A2997 RMK A01 T00570005  RH  069%=      5-min Rain = 0
KCO1 190943Z 20006KT 06/01 A2997 RMK A01 T00570005  RH  069%=      5-min Rain = 0
KCO1 190944Z 20007KT 06/01 A2997 RMK A01 T00560005  RH  069%=      5-min Rain = 0
KCO1 190945Z 20006KT 06/01 A2997 RMK A01 T00570005  RH  069%=      5-min Rain = 0
KCO1 190946Z 20006KT 06/00 A2997 RMK A01 T00570004  RH  069%=      5-min Rain = 0
KCO1 190947Z 20006KT 06/00 A2997 RMK A01 T00570004  RH  068%=      5-min Rain = 0
KCO1 190948Z 20006KT 06/00 A2997 RMK A01 T00570004  RH  068%=      5-min Rain = 0
KCO1 190949Z 21005KT 06/00 A2997 RMK A01 T00570004  RH  068%=      5-min Rain = 0
KCO1 190950Z 21005KT 06/00 A2997 RMK A01 T00570003  RH  068%=      5-min Rain = 0
KCO1 190951Z 21006KT 06/00 A2996 RMK A01 T00570003  RH  068%=      5-min Rain = 0
KCO1 190952Z 21005KT 06/00 A2996 RMK A01 T00560003  RH  069%=      5-min Rain = 0
KCO1 190953Z 21005KT 06/00 A2997 RMK A01 T00560003  RH  069%=      5-min Rain = 0
KCO1 190954Z 20005KT 06/00 A2997 RMK A01 T00550003  RH  069%=      5-min Rain = 0
KCO1 190955Z 20005KT 05/00 A2997 RMK A01 T00540003  RH  069%=      5-min Rain = 0
KCO1 190956Z 19005KT 05/00 A2997 RMK A01 T00530002  RH  070%=      5-min Rain = 0
KCO1 190957Z 21005KT 05/00 A2997 RMK A01 T00510002  RH  071%=      5-min Rain = 0
KCO1 190958Z 21004KT 05/00 A2997 RMK A01 T00500002  RH  071%=      5-min Rain = 0
KCO1 190959Z 19004KT 05/00 A2997 RMK A01 T00500002  RH  071%=      5-min Rain = 0
KCO1 191000Z 18005KT 05/00 A2997 RMK A01 T00490002  RH  072%=      5-min Rain = 0
KCO1 191001Z 19005KT 05/00 A2997 RMK A01 T00480002  RH  072%=      5-min Rain = 0
KCO1 191002Z 21005KT 05/00 A2997 RMK A01 T00480002  RH  072%=      5-min Rain = 0
KCO1 191003Z 20004KT 05/00 A2997 RMK A01 T00470002  RH  072%=      5-min Rain = 0
KCO1 191004Z 19005KT 05/00 A2996 RMK A01 T00470002  RH  073%=      5-min Rain = 0
KCO1 191005Z 18005KT 05/00 A2996 RMK A01 T00460002  RH  073%=      5-min Rain = 0
KCO1 191006Z 20005KT 05/00 A2996 RMK A01 T00460003  RH  073%=      5-min Rain = 0
KCO1 191007Z 20004KT 05/00 A2996 RMK A01 T00460002  RH  073%=      5-min Rain = 0
KCO1 191008Z 19005KT 05/00 A2996 RMK A01 T00460002  RH  074%=      5-min Rain = 0
KCO1 191009Z 18005KT 05/00 A2996 RMK A01 T00460003  RH  074%=      5-min Rain = 0
KCO1 191010Z 18005KT 05/00 A2996 RMK A01 T00450003  RH  074%=      5-min Rain = 0
KCO1 191011Z 19006KT 05/00 A2996 RMK A01 T00450003  RH  074%=      5-min Rain = 0
KCO1 191012Z 18006KT 05/00 A2996 RMK A01 T00450003  RH  074%=      5-min Rain = 0
KCO1 191013Z 18006KT 05/00 A2996 RMK A01 T00450002  RH  074%=      5-min Rain = 0
KCO1 191014Z 19005KT 05/00 A2996 RMK A01 T00460003  RH  074%=      5-min Rain = 0
KCO1 191015Z 19005KT 05/00 A2996 RMK A01 T00470003  RH  073%=      5-min Rain = 0
KCO1 191016Z 19005KT 05/00 A2996 RMK A01 T00480003  RH  073%=      5-min Rain = 0
KCO1 191017Z 19006KT 05/00 A2996 RMK A01 T00490003  RH  072%=      5-min Rain = 0
KCO1 191018Z 20006KT 05/00 A2996 RMK A01 T00500003  RH  072%=      5-min Rain = 0
KCO1 191019Z 20006KT 05/00 A2996 RMK A01 T00510003  RH  071%=      5-min Rain = 0
KCO1 191020Z 20007KT 05/00 A2996 RMK A01 T00510003  RH  071%=      5-min Rain = 0
KCO1 191021Z 20007KT 05/00 A2996 RMK A01 T00510002  RH  071%=      5-min Rain = 0
KCO1 191022Z 20007KT 05/00 A2996 RMK A01 T00510002  RH  071%=      5-min Rain = 0
KCO1 191023Z 20007KT 05/00 A2996 RMK A01 T00510002  RH  071%=      5-min Rain = 0
KCO1 191024Z 20006KT 05/00 A2996 RMK A01 T00510002  RH  071%=      5-min Rain = 0
KCO1 191025Z 20006KT 05/00 A2996 RMK A01 T00520003  RH  071%=      5-min Rain = 0
KCO1 191026Z 20006KT 05/00 A2996 RMK A01 T00520003  RH  070%=      5-min Rain = 0
KCO1 191027Z 20006KT 05/00 A2996 RMK A01 T00530003  RH  070%=      5-min Rain = 0
KCO1 191028Z 20006KT 05/00 A2996 RMK A01 T00530003  RH  070%=      5-min Rain = 0
KCO1 191029Z 20006KT 05/00 A2996 RMK A01 T00530003  RH  070%=      5-min Rain = 0
KCO1 191030Z 20006KT 05/00 A2996 RMK A01 T00530003  RH  070%=      5-min Rain = 0
KCO1 191031Z 20006KT 05/00 A2996 RMK A01 T00530003  RH  070%=      5-min Rain = 0
KCO1 191032Z 20006KT 05/00 A2995 RMK A01 T00530003  RH  070%=      5-min Rain = 0
KCO1 191033Z 20006KT 05/00 A2995 RMK A01 T00530004  RH  070%=      5-min Rain = 0
KCO1 191034Z 20006KT 05/00 A2995 RMK A01 T00530004  RH  071%=      5-min Rain = 0
KCO1 191035Z 21006KT 05/00 A2995 RMK A01 T00530004  RH  071%=      5-min Rain = 0
KCO1 191036Z 22006KT 05/00 A2996 RMK A01 T00530004  RH  071%=      5-min Rain = 0
KCO1 191037Z 22007KT 05/00 A2996 RMK A01 T00530003  RH  070%=      5-min Rain = 0
KCO1 191038Z 22006KT 05/00 A2996 RMK A01 T00520003  RH  070%=      5-min Rain = 0
KCO1 191039Z 21006KT 05/00 A2996 RMK A01 T00520003  RH  071%=      5-min Rain = 0
KCO1 191040Z 21006KT 05/00 A2996 RMK A01 T00520003  RH  071%=      5-min Rain = 0
KCO1 191041Z 20006KT 05/00 A2996 RMK A01 T00520004  RH  071%=      5-min Rain = 0
KCO1 191042Z 20006KT 05/00 A2996 RMK A01 T00520004  RH  071%=      5-min Rain = 0
KCO1 191043Z 20006KT 05/00 A2996 RMK A01 T00510004  RH  071%=      5-min Rain = 0
KCO1 191044Z 20006KT 05/00 A2996 RMK A01 T00510004  RH  071%=      5-min Rain = 0
KCO1 191045Z 19006KT 05/00 A2996 RMK A01 T00510004  RH  072%=      5-min Rain = 0
KCO1 191046Z 19006KT 05/00 A2996 RMK A01 T00500003  RH  072%=      5-min Rain = 0
KCO1 191047Z 19006KT 05/00 A2996 RMK A01 T00490003  RH  072%=      5-min Rain = 0
KCO1 191048Z 19006KT 05/00 A2996 RMK A01 T00490003  RH  072%=      5-min Rain = 0
KCO1 191049Z 19006KT 05/00 A2996 RMK A01 T00490004  RH  072%=      5-min Rain = 0
KCO1 191050Z 20006KT 05/00 A2996 RMK A01 T00490004  RH  072%=      5-min Rain = 0
KCO1 191051Z 20007KT 05/00 A2996 RMK A01 T00500004  RH  072%=      5-min Rain = 0
KCO1 191052Z 20007KT 05/01 A2996 RMK A01 T00520005  RH  072%=      5-min Rain = 0
KCO1 191053Z 20007KT 05/01 A2996 RMK A01 T00530005  RH  071%=      5-min Rain = 0
KCO1 191054Z 20007KT 05/01 A2996 RMK A01 T00540006  RH  071%=      5-min Rain = 0
KCO1 191055Z 20006KT 05/01 A2996 RMK A01 T00540006  RH  071%=      5-min Rain = 0
KCO1 191056Z 20006KT 05/01 A2996 RMK A01 T00540005  RH  071%=      5-min Rain = 0
KCO1 191057Z 20006KT 05/01 A2996 RMK A01 T00540005  RH  071%=      5-min Rain = 0
KCO1 191058Z 20006KT 06/01 A2996 RMK A01 T00550005  RH  070%=      5-min Rain = 0
KCO1 191059Z 20005KT 06/01 A2996 RMK A01 T00560006  RH  070%=      5-min Rain = 0
KCO1 191100Z 20005KT 06/01 A2996 RMK A01 T00560005  RH  070%=      5-min Rain = 0
KCO1 191101Z 21005KT 06/01 A2996 RMK A01 T00570005  RH  070%=      5-min Rain = 0
KCO1 191102Z 21005KT 06/01 A2996 RMK A01 T00570005  RH  069%=      5-min Rain = 0
KCO1 191103Z 20005KT 06/01 A2996 RMK A01 T00570005  RH  069%=      5-min Rain = 0
KCO1 191104Z 21005KT 06/01 A2996 RMK A01 T00570005  RH  069%=      5-min Rain = 0
KCO1 191105Z 20005KT 06/01 A2996 RMK A01 T00570005  RH  069%=      5-min Rain = 0
KCO1 191106Z 20005KT 06/01 A2996 RMK A01 T00570005  RH  069%=      5-min Rain = 0
KCO1 191107Z 20004KT 06/01 A2996 RMK A01 T00560005  RH  070%=      5-min Rain = 0
KCO1 191108Z 20004KT 06/01 A2996 RMK A01 T00560005  RH  070%=      5-min Rain = 0
KCO1 191109Z 19005KT 06/01 A2996 RMK A01 T00550005  RH  070%=      5-min Rain = 0
KCO1 191110Z 20005KT 06/01 A2996 RMK A01 T00550005  RH  070%=      5-min Rain = 0
KCO1 191111Z 20005KT 06/01 A2996 RMK A01 T00550005  RH  070%=      5-min Rain = 0
KCO1 191112Z 20005KT 06/01 A2996 RMK A01 T00550005  RH  070%=      5-min Rain = 0
KCO1 191113Z 20005KT 06/01 A2996 RMK A01 T00550005  RH  070%=      5-min Rain = 0
KCO1 191114Z 20005KT 05/01 A2996 RMK A01 T00540005  RH  071%=      5-min Rain = 0
KCO1 191115Z 21005KT 05/01 A2996 RMK A01 T00540005  RH  071%=      5-min Rain = 0
KCO1 191116Z 20005KT 05/01 A2996 RMK A01 T00540005  RH  071%=      5-min Rain = 0
KCO1 191117Z 20005KT 06/01 A2996 RMK A01 T00550005  RH  070%=      5-min Rain = 0
KCO1 191118Z 20005KT 06/01 A2996 RMK A01 T00550005  RH  070%=      5-min Rain = 0
KCO1 191119Z 20005KT 06/01 A2996 RMK A01 T00560005  RH  070%=      5-min Rain = 0
KCO1 191120Z 20005KT 06/01 A2996 RMK A01 T00560005  RH  070%=      5-min Rain = 0
KCO1 191121Z 20006KT 06/01 A2996 RMK A01 T00550005  RH  070%=      5-min Rain = 0
KCO1 191122Z 20006KT 06/00 A2996 RMK A01 T00550004  RH  070%=      5-min Rain = 0
KCO1 191123Z 20007KT 06/00 A2996 RMK A01 T00550004  RH  070%=      5-min Rain = 0
KCO1 191124Z 20006KT 06/00 A2996 RMK A01 T00550004  RH  070%=      5-min Rain = 0
KCO1 191125Z 20006KT 06/00 A2996 RMK A01 T00550004  RH  070%=      5-min Rain = 0
KCO1 191126Z 20006KT 06/00 A2996 RMK A01 T00550004  RH  070%=      5-min Rain = 0
KCO1 191127Z 20005KT 06/00 A2996 RMK A01 T00550004  RH  070%=      5-min Rain = 0
KCO1 191128Z 20005KT 06/00 A2996 RMK A01 T00550004  RH  070%=      5-min Rain = 0
KCO1 191129Z 20005KT 06/00 A2996 RMK A01 T00550004  RH  070%=      5-min Rain = 0
KCO1 191130Z 20006KT 06/00 A2996 RMK A01 T00550004  RH  070%=      5-min Rain = 0
KCO1 191131Z 20006KT 06/00 A2996 RMK A01 T00550004  RH  070%=      5-min Rain = 0
KCO1 191132Z 20006KT 06/00 A2996 RMK A01 T00550004  RH  070%=      5-min Rain = 0
KCO1 191133Z 20006KT 06/01 A2996 RMK A01 T00550005  RH  070%=      5-min Rain = 0
KCO1 191134Z 21005KT 06/00 A2996 RMK A01 T00550004  RH  070%=      5-min Rain = 0
KCO1 191135Z 21006KT 06/01 A2996 RMK A01 T00550005  RH  070%=      5-min Rain = 0
KCO1 191136Z 20006KT 06/01 A2996 RMK A01 T00550005  RH  070%=      5-min Rain = 0
KCO1 191137Z 21005KT 06/01 A2996 RMK A01 T00560005  RH  069%=      5-min Rain = 0
KCO1 191138Z 20006KT 06/01 A2996 RMK A01 T00570005  RH  069%=      5-min Rain = 0
KCO1 191139Z 21005KT 06/01 A2996 RMK A01 T00570005  RH  069%=      5-min Rain = 0
KCO1 191140Z 21006KT 06/01 A2996 RMK A01 T00580005  RH  069%=      5-min Rain = 0
KCO1 191141Z 21006KT 06/01 A2996 RMK A01 T00590006  RH  069%=      5-min Rain = 0
KCO1 191142Z 21006KT 06/01 A2996 RMK A01 T00590005  RH  068%=      5-min Rain = 0
KCO1 191143Z 21006KT 06/01 A2996 RMK A01 T00600006  RH  068%=      5-min Rain = 0
KCO1 191144Z 21006KT 06/01 A2996 RMK A01 T00600006  RH  068%=      5-min Rain = 0
KCO1 191145Z 21006KT 06/01 A2996 RMK A01 T00610006  RH  068%=      5-min Rain = 0
KCO1 191146Z 21006KT 06/01 A2996 RMK A01 T00610006  RH  068%=      5-min Rain = 0
KCO1 191147Z 21006KT 06/01 A2996 RMK A01 T00610006  RH  068%=      5-min Rain = 0
KCO1 191148Z 21006KT 06/01 A2996 RMK A01 T00610006  RH  068%=      5-min Rain = 0
KCO1 191149Z 21006KT 06/01 A2996 RMK A01 T00610007  RH  068%=      5-min Rain = 0
KCO1 191150Z 21006KT 06/01 A2996 RMK A01 T00610007  RH  068%=      5-min Rain = 0
KCO1 191151Z 21006KT 06/01 A2996 RMK A01 T00610006  RH  068%=      5-min Rain = 0
KCO1 191152Z 21006KT 06/01 A2996 RMK A01 T00610007  RH  068%=      5-min Rain = 0
KCO1 191153Z 21005KT 06/01 A2996 RMK A01 T00620007  RH  068%=      5-min Rain = 0
KCO1 191154Z 22005KT 06/01 A2996 RMK A01 T00620006  RH  068%=      5-min Rain = 0
KCO1 191155Z 22005KT 06/01 A2996 RMK A01 T00620006  RH  067%=      5-min Rain = 0
KCO1 191156Z 22005KT 06/01 A2996 RMK A01 T00620006  RH  067%=      5-min Rain = 0
KCO1 191157Z 22004KT 06/01 A2996 RMK A01 T00620007  RH  067%=      5-min Rain = 0
KCO1 191158Z 23004KT 06/01 A2996 RMK A01 T00620007  RH  068%=      5-min Rain = 0
KCO1 191159Z 23004KT 06/01 A2996 RMK A01 T00620007  RH  068%=      5-min Rain = 0
KCO1 191200Z 23004KT 06/01 A2996 RMK A01 T00620007  RH  068%=      5-min Rain = 0
KCO1 191201Z 22005KT 06/01 A2996 RMK A01 T00620007  RH  068%=      5-min Rain = 0
KCO1 191202Z 21005KT 06/01 A2996 RMK A01 T00610007  RH  068%=      5-min Rain = 0
KCO1 191203Z 21005KT 06/01 A2996 RMK A01 T00610007  RH  068%=      5-min Rain = 0
KCO1 191204Z 22004KT 06/01 A2996 RMK A01 T00610007  RH  068%=      5-min Rain = 0
KCO1 191205Z 22004KT 06/01 A2996 RMK A01 T00610006  RH  068%=      5-min Rain = 0
KCO1 191206Z 21004KT 06/01 A2996 RMK A01 T00610006  RH  068%=      5-min Rain = 0
KCO1 191207Z 21004KT 06/01 A2996 RMK A01 T00610006  RH  068%=      5-min Rain = 0
KCO1 191208Z 21004KT 06/01 A2996 RMK A01 T00620006  RH  067%=      5-min Rain = 0
KCO1 191209Z 21004KT 06/01 A2996 RMK A01 T00630006  RH  067%=      5-min Rain = 0
KCO1 191210Z 21003KT 06/01 A2996 RMK A01 T00630006  RH  067%=      5-min Rain = 0
KCO1 191211Z 20003KT 06/01 A2996 RMK A01 T00630006  RH  067%=      5-min Rain = 0
KCO1 191212Z 20003KT 06/01 A2996 RMK A01 T00630006  RH  067%=      5-min Rain = 0
KCO1 191213Z 20003KT 06/01 A2996 RMK A01 T00630006  RH  067%=      5-min Rain = 0
KCO1 191214Z 20003KT 06/01 A2996 RMK A01 T00620005  RH  067%=      5-min Rain = 0
KCO1 191215Z 22003KT 06/01 A2996 RMK A01 T00620005  RH  067%=      5-min Rain = 0
KCO1 191216Z 22003KT 06/01 A2997 RMK A01 T00610005  RH  067%=      5-min Rain = 0
KCO1 191217Z 22003KT 06/01 A2997 RMK A01 T00620005  RH  067%=      5-min Rain = 0
KCO1 191218Z 22003KT 06/01 A2997 RMK A01 T00610005  RH  067%=      5-min Rain = 0
KCO1 191219Z 22003KT 06/01 A2997 RMK A01 T00620005  RH  067%=      5-min Rain = 0
KCO1 191220Z 24002KT 06/01 A2996 RMK A01 T00610005  RH  067%=      5-min Rain = 0
KCO1 191221Z 23001KT 06/01 A2996 RMK A01 T00610005  RH  067%=      5-min Rain = 0
KCO1 191222Z 24002KT 06/01 A2996 RMK A01 T00610005  RH  067%=      5-min Rain = 0
KCO1 191223Z 22002KT 06/01 A2996 RMK A01 T00610005  RH  067%=      5-min Rain = 0
KCO1 191224Z 22002KT 06/01 A2997 RMK A01 T00610005  RH  067%=      5-min Rain = 0
KCO1 191225Z 24001KT 06/01 A2997 RMK A01 T00610005  RH  067%=      5-min Rain = 0
KCO1 191226Z 24001KT 06/01 A2997 RMK A01 T00610005  RH  067%=      5-min Rain = 0
KCO1 191227Z 23002KT 06/01 A2997 RMK A01 T00610005  RH  068%=      5-min Rain = 0
KCO1 191228Z 22003KT 06/01 A2997 RMK A01 T00610005  RH  067%=      5-min Rain = 0
KCO1 191229Z 21004KT 06/01 A2997 RMK A01 T00610005  RH  067%=      5-min Rain = 0
KCO1 191230Z 21003KT 06/01 A2997 RMK A01 T00610005  RH  067%=      5-min Rain = 0
KCO1 191231Z 22003KT 06/01 A2997 RMK A01 T00600005  RH  067%=      5-min Rain = 0
KCO1 191232Z 22003KT 06/01 A2997 RMK A01 T00600005  RH  067%=      5-min Rain = 0
KCO1 191233Z 23001KT 06/01 A2997 RMK A01 T00600005  RH  067%=      5-min Rain = 0
KCO1 191234Z 32002KT 06/00 A2997 RMK A01 T00600004  RH  067%=      5-min Rain = 0
KCO1 191235Z 32002KT 06/01 A2997 RMK A01 T00600005  RH  068%=      5-min Rain = 0
KCO1 191236Z 33002KT 06/01 A2997 RMK A01 T00600005  RH  068%=      5-min Rain = 0
KCO1 191237Z 33001KT 06/00 A2997 RMK A01 T00580004  RH  068%=      5-min Rain = 0
KCO1 191238Z 35001KT 06/00 A2997 RMK A01 T00560004  RH  069%=      5-min Rain = 0
KCO1 191239Z 33001KT 05/00 A2997 RMK A01 T00530004  RH  070%=      5-min Rain = 0
KCO1 191240Z 32001KT 05/00 A2997 RMK A01 T00510004  RH  071%=      5-min Rain = 0
KCO1 191241Z 27001KT 05/00 A2997 RMK A01 T00500004  RH  072%=      5-min Rain = 0
KCO1 191242Z 20001KT 05/00 A2997 RMK A01 T00480004  RH  073%=      5-min Rain = 0
KCO1 191243Z 19001KT 05/00 A2997 RMK A01 T00470004  RH  074%=      5-min Rain = 0
KCO1 191244Z 00000KT 05/00 A2997 RMK A01 T00460004  RH  074%=      5-min Rain = 0
KCO1 191245Z 19000KT 05/00 A2997 RMK A01 T00450004  RH  075%=      5-min Rain = 0
KCO1 191246Z 00000KT 05/00 A2997 RMK A01 T00450004  RH  075%=      5-min Rain = 0
KCO1 191247Z 19000KT 04/00 A2997 RMK A01 T00440004  RH  075%=      5-min Rain = 0
KCO1 191248Z 19000KT 04/00 A2997 RMK A01 T00430004  RH  075%=      5-min Rain = 0
KCO1 191249Z 00000KT 04/00 A2997 RMK A01 T00430004  RH  076%=      5-min Rain = 0
KCO1 191250Z 19000KT 04/01 A2997 RMK A01 T00420005  RH  076%=      5-min Rain = 0
KCO1 191251Z 19001KT 04/01 A2997 RMK A01 T00420005  RH  077%=      5-min Rain = 0
KCO1 191252Z 19001KT 04/01 A2997 RMK A01 T00410005  RH  077%=      5-min Rain = 0
KCO1 191253Z 19001KT 04/00 A2997 RMK A01 T00400004  RH  077%=      5-min Rain = 0
KCO1 191254Z 18000KT 04/00 A2997 RMK A01 T00390004  RH  078%=      5-min Rain = 0
KCO1 191255Z 09001KT 04/00 A2997 RMK A01 T00380003  RH  078%=      5-min Rain = 0
KCO1 191256Z 09001KT 04/00 A2997 RMK A01 T00370003  RH  078%=      5-min Rain = 0
KCO1 191257Z 09001KT 04/00 A2997 RMK A01 T00370004  RH  079%=      5-min Rain = 0
KCO1 191258Z 10001KT 04/01 A2997 RMK A01 T00370005  RH  079%=      5-min Rain = 0
KCO1 191259Z 12001KT 04/01 A2997 RMK A01 T00380006  RH  080%=      5-min Rain = 0
KCO1 191300Z 12001KT 04/01 A2997 RMK A01 T00390007  RH  080%=      5-min Rain = 0
KCO1 191301Z 12000KT 04/01 A2997 RMK A01 T00390006  RH  079%=      5-min Rain = 0
KCO1 191302Z 14001KT 04/01 A2997 RMK A01 T00390006  RH  079%=      5-min Rain = 0
KCO1 191303Z 14000KT 04/01 A2998 RMK A01 T00390006  RH  079%=      5-min Rain = 0
KCO1 191304Z 09000KT 04/01 A2998 RMK A01 T00390006  RH  079%=      5-min Rain = 0
KCO1 191305Z 08002KT 04/01 A2998 RMK A01 T00390006  RH  079%=      5-min Rain = 0
KCO1 191306Z 09002KT 04/01 A2998 RMK A01 T00380007  RH  080%=      5-min Rain = 0
KCO1 191307Z 08002KT 04/01 A2998 RMK A01 T00380007  RH  080%=      5-min Rain = 0
KCO1 191308Z 05004KT 04/01 A2998 RMK A01 T00380006  RH  080%=      5-min Rain = 0
KCO1 191309Z 08003KT 04/01 A2998 RMK A01 T00370006  RH  080%=      5-min Rain = 0
KCO1 191310Z 08003KT 04/01 A2998 RMK A01 T00370006  RH  080%=      5-min Rain = 0
KCO1 191311Z 07003KT 04/01 A2998 RMK A01 T00360005  RH  080%=      5-min Rain = 0
KCO1 191312Z 06003KT 04/01 A2998 RMK A01 T00360005  RH  081%=      5-min Rain = 0
KCO1 191313Z 07003KT 04/01 A2998 RMK A01 T00360006  RH  081%=      5-min Rain = 0
KCO1 191314Z 08004KT 04/01 A2998 RMK A01 T00360006  RH  081%=      5-min Rain = 0
KCO1 191315Z 07004KT 04/01 A2997 RMK A01 T00350006  RH  081%=      5-min Rain = 0
KCO1 191316Z 06003KT 04/01 A2997 RMK A01 T00350005  RH  081%=      5-min Rain = 0
KCO1 191317Z 05002KT 03/01 A2997 RMK A01 T00340005  RH  081%=      5-min Rain = 0
KCO1 191318Z 04002KT 03/01 A2997 RMK A01 T00340005  RH  082%=      5-min Rain = 0
KCO1 191319Z 05003KT 03/01 A2997 RMK A01 T00340006  RH  082%=      5-min Rain = 0
KCO1 191320Z 05003KT 03/01 A2997 RMK A01 T00340006  RH  082%=      5-min Rain = 0
KCO1 191321Z 05003KT 03/01 A2997 RMK A01 T00330005  RH  082%=      5-min Rain = 0
KCO1 191322Z 05003KT 03/01 A2997 RMK A01 T00330005  RH  082%=      5-min Rain = 0
KCO1 191323Z 05002KT 03/01 A2998 RMK A01 T00330005  RH  082%=      5-min Rain = 0
KCO1 191324Z 07002KT 03/01 A2998 RMK A01 T00330005  RH  082%=      5-min Rain = 0
KCO1 191325Z 08002KT 03/01 A2998 RMK A01 T00330005  RH  082%=      5-min Rain = 0
KCO1 191326Z 08002KT 03/01 A2998 RMK A01 T00330005  RH  082%=      5-min Rain = 0
KCO1 191327Z 10001KT 03/01 A2998 RMK A01 T00320005  RH  082%=      5-min Rain = 0
KCO1 191328Z 10000KT 03/00 A2998 RMK A01 T00320004  RH  082%=      5-min Rain = 0
KCO1 191329Z 00000KT 03/01 A2998 RMK A01 T00320005  RH  082%=      5-min Rain = 0
KCO1 191330Z 00000KT 03/01 A2998 RMK A01 T00320005  RH  082%=      5-min Rain = 0
KCO1 191331Z 00000KT 03/00 A2998 RMK A01 T00320004  RH  082%=      5-min Rain = 0
KCO1 191332Z 00000KT 03/01 A2998 RMK A01 T00320005  RH  082%=      5-min Rain = 0
KCO1 191333Z 00000KT 03/01 A2998 RMK A01 T00320005  RH  082%=      5-min Rain = 0
KCO1 191334Z 00000KT 03/01 A2998 RMK A01 T00330006  RH  082%=      5-min Rain = 0
KCO1 191335Z 00000KT 03/01 A2998 RMK A01 T00330006  RH  082%=      5-min Rain = 0
KCO1 191336Z 00000KT 03/01 A2998 RMK A01 T00340006  RH  082%=      5-min Rain = 0
KCO1 191337Z 00000KT 03/01 A2998 RMK A01 T00340005  RH  082%=      5-min Rain = 0
KCO1 191338Z 00000KT 03/01 A2998 RMK A01 T00340005  RH  082%=      5-min Rain = 0
KCO1 191339Z 09000KT 03/01 A2998 RMK A01 T00340006  RH  082%=      5-min Rain = 0
KCO1 191340Z 08001KT 04/01 A2998 RMK A01 T00350006  RH  081%=      5-min Rain = 0
KCO1 191341Z 06001KT 04/01 A2998 RMK A01 T00360006  RH  081%=      5-min Rain = 0
KCO1 191342Z 06002KT 04/01 A2998 RMK A01 T00360007  RH  081%=      5-min Rain = 0
KCO1 191343Z 05002KT 04/01 A2998 RMK A01 T00370006  RH  081%=      5-min Rain = 0
KCO1 191344Z 04002KT 04/01 A2998 RMK A01 T00370006  RH  080%=      5-min Rain = 0
KCO1 191345Z 04002KT 04/01 A2998 RMK A01 T00370006  RH  080%=      5-min Rain = 0
KCO1 191346Z 04003KT 04/01 A2998 RMK A01 T00370006  RH  080%=      5-min Rain = 0
KCO1 191347Z 04003KT 04/01 A2998 RMK A01 T00370005  RH  080%=      5-min Rain = 0
KCO1 191348Z 05003KT 04/01 A2998 RMK A01 T00360005  RH  080%=      5-min Rain = 0
KCO1 191349Z 05003KT 04/01 A2998 RMK A01 T00360006  RH  080%=      5-min Rain = 0
KCO1 191350Z 05003KT 04/01 A2998 RMK A01 T00370006  RH  081%=      5-min Rain = 0
KCO1 191351Z 05003KT 04/01 A2998 RMK A01 T00360006  RH  081%=      5-min Rain = 0
KCO1 191352Z 04003KT 04/01 A2998 RMK A01 T00360006  RH  081%=      5-min Rain = 0
KCO1 191353Z 04002KT 04/01 A2998 RMK A01 T00360007  RH  081%=      5-min Rain = 0
KCO1 191354Z 04002KT 04/01 A2998 RMK A01 T00360007  RH  081%=      5-min Rain = 0
KCO1 191355Z 03002KT 04/01 A2998 RMK A01 T00360007  RH  081%=      5-min Rain = 0
KCO1 191356Z 03002KT 04/01 A2998 RMK A01 T00370008  RH  081%=      5-min Rain = 0
KCO1 191357Z 02002KT 04/01 A2998 RMK A01 T00380009  RH  081%=      5-min Rain = 0
KCO1 191358Z 04002KT 04/01 A2998 RMK A01 T00390010  RH  081%=      5-min Rain = 0
KCO1 191359Z 06003KT 04/01 A2998 RMK A01 T00410011  RH  081%=      5-min Rain = 0
KCO1 191400Z 06003KT 04/01 A2998 RMK A01 T00420011  RH  080%=      5-min Rain = 0
KCO1 191401Z 07003KT 04/01 A2998 RMK A01 T00420011  RH  080%=      5-min Rain = 0
KCO1 191402Z 07003KT 04/01 A2998 RMK A01 T00430012  RH  080%=      5-min Rain = 0
KCO1 191403Z 08003KT 04/01 A2998 RMK A01 T00430012  RH  080%=      5-min Rain = 0
KCO1 191404Z 08003KT 04/01 A2998 RMK A01 T00440013  RH  080%=      5-min Rain = 0
KCO1 191405Z 08003KT 05/01 A2998 RMK A01 T00450014  RH  080%=      5-min Rain = 0
KCO1 191406Z 08003KT 05/01 A2998 RMK A01 T00450014  RH  080%=      5-min Rain = 0
KCO1 191407Z 07003KT 05/01 A2998 RMK A01 T00460014  RH  079%=      5-min Rain = 0
KCO1 191408Z 07004KT 05/01 A2998 RMK A01 T00470013  RH  079%=      5-min Rain = 0
KCO1 191409Z 06004KT 05/01 A2998 RMK A01 T00480012  RH  078%=      5-min Rain = 0
KCO1 191410Z 07004KT 05/01 A2998 RMK A01 T00500013  RH  077%=      5-min Rain = 0
KCO1 191411Z 07004KT 05/02 A2998 RMK A01 T00520015  RH  077%=      5-min Rain = 0
KCO1 191412Z 09003KT 05/02 A2998 RMK A01 T00540018  RH  077%=      5-min Rain = 0
KCO1 191413Z 10002KT 06/02 A2998 RMK A01 T00570019  RH  077%=      5-min Rain = 0
KCO1 191414Z 10002KT 06/02 A2998 RMK A01 T00600020  RH  075%=      5-min Rain = 0
KCO1 191415Z 10001KT 06/02 A2998 RMK A01 T00620019  RH  074%=      5-min Rain = 0
KCO1 191416Z 08000KT 06/02 A2999 RMK A01 T00640018  RH  072%=      5-min Rain = 0
KCO1 191417Z 08000KT 07/02 A2999 RMK A01 T00660018  RH  071%=      5-min Rain = 0
KCO1 191418Z 10000KT 07/02 A2999 RMK A01 T00670017  RH  070%=      5-min Rain = 0
KCO1 191419Z 18000KT 07/02 A2999 RMK A01 T00680017  RH  070%=      5-min Rain = 0
KCO1 191420Z 18001KT 07/02 A2999 RMK A01 T00680016  RH  069%=      5-min Rain = 0
KCO1 191421Z 17001KT 07/02 A2999 RMK A01 T00690015  RH  069%=      5-min Rain = 0
KCO1 191422Z 18001KT 07/02 A2999 RMK A01 T00700015  RH  068%=      5-min Rain = 0
KCO1 191423Z 19001KT 07/02 A2999 RMK A01 T00710016  RH  068%=      5-min Rain = 0
KCO1 191424Z 28001KT 07/02 A2999 RMK A01 T00720016  RH  067%=      5-min Rain = 0
KCO1 191425Z 28001KT 07/02 A2999 RMK A01 T00740017  RH  067%=      5-min Rain = 0
KCO1 191426Z 29000KT 07/02 A2999 RMK A01 T00740016  RH  067%=      5-min Rain = 0
KCO1 191427Z 00000KT 08/02 A2999 RMK A01 T00750016  RH  066%=      5-min Rain = 0
KCO1 191428Z 00000KT 08/02 A2999 RMK A01 T00770018  RH  066%=      5-min Rain = 0
KCO1 191429Z 35000KT 08/02 A2999 RMK A01 T00790018  RH  065%=      5-min Rain = 0
KCO1 191430Z 09000KT 08/02 A2999 RMK A01 T00810018  RH  065%=      5-min Rain = 0
KCO1 191431Z 31000KT 08/02 A2999 RMK A01 T00810018  RH  064%=      5-min Rain = 0
KCO1 191432Z 33001KT 08/02 A2999 RMK A01 T00810017  RH  064%=      5-min Rain = 0
KCO1 191433Z 35001KT 08/02 A2999 RMK A01 T00800016  RH  064%=      5-min Rain = 0
KCO1 191434Z 02001KT 08/01 A2999 RMK A01 T00790014  RH  064%=      5-min Rain = 0
KCO1 191435Z 06001KT 08/02 A2999 RMK A01 T00790015  RH  064%=      5-min Rain = 0
KCO1 191436Z 06001KT 08/02 A2999 RMK A01 T00790015  RH  064%=      5-min Rain = 0
KCO1 191437Z 06001KT 08/02 A2999 RMK A01 T00800015  RH  064%=      5-min Rain = 0
KCO1 191438Z 09001KT 08/02 A2999 RMK A01 T00820017  RH  063%=      5-min Rain = 0
KCO1 191439Z 11001KT 09/02 A2999 RMK A01 T00850018  RH  063%=      5-min Rain = 0
KCO1 191440Z 11002KT 09/02 A2999 RMK A01 T00870016  RH  061%=      5-min Rain = 0
KCO1 191441Z 11002KT 09/02 A2999 RMK A01 T00880015  RH  060%=      5-min Rain = 0
KCO1 191442Z 10002KT 09/01 A2999 RMK A01 T00880013  RH  059%=      5-min Rain = 0
KCO1 191443Z 09001KT 09/01 A2999 RMK A01 T00880012  RH  059%=      5-min Rain = 0
KCO1 191444Z 11001KT 09/01 A2999 RMK A01 T00870012  RH  059%=      5-min Rain = 0
KCO1 191445Z 12001KT 09/01 A2999 RMK A01 T00870011  RH  059%=      5-min Rain = 0
KCO1 191446Z 13001KT 09/01 A2999 RMK A01 T00870011  RH  059%=      5-min Rain = 0
KCO1 191447Z 13002KT 09/01 A2999 RMK A01 T00880012  RH  059%=      5-min Rain = 0
KCO1 191448Z 13002KT 09/01 A2999 RMK A01 T00900014  RH  059%=      5-min Rain = 0
KCO1 191449Z 13001KT 09/01 A2999 RMK A01 T00910014  RH  059%=      5-min Rain = 0
KCO1 191450Z 12001KT 09/01 A2999 RMK A01 T00920014  RH  058%=      5-min Rain = 0
KCO1 191451Z 11001KT 09/02 A2999 RMK A01 T00940015  RH  058%=      5-min Rain = 0
KCO1 191452Z 11001KT 10/01 A2999 RMK A01 T00950014  RH  057%=      5-min Rain = 0
KCO1 191453Z 14001KT 10/02 A2999 RMK A01 T00960015  RH  057%=      5-min Rain = 0
KCO1 191454Z 16000KT 10/02 A2999 RMK A01 T00970016  RH  057%=      5-min Rain = 0
KCO1 191455Z 14001KT 10/02 A2999 RMK A01 T00990016  RH  057%=      5-min Rain = 0
KCO1 191456Z 16001KT 10/02 A2999 RMK A01 T01010017  RH  056%=      5-min Rain = 0
KCO1 191457Z 14001KT 10/02 A2999 RMK A01 T01020016  RH  055%=      5-min Rain = 0
KCO1 191458Z 14002KT 10/02 A2999 RMK A01 T01030018  RH  056%=      5-min Rain = 0
KCO1 191459Z 14003KT 10/02 A2999 RMK A01 T01040016  RH  054%=      5-min Rain = 0
KCO1 191500Z 13002KT 11/02 A2999 RMK A01 T01050015  RH  054%=      5-min Rain = 0
KCO1 191501Z 13002KT 11/02 A2999 RMK A01 T01050015  RH  054%=      5-min Rain = 0
KCO1 191502Z 12002KT 11/02 A2999 RMK A01 T01060015  RH  053%=      5-min Rain = 0
KCO1 191503Z 14002KT 11/02 A2999 RMK A01 T01070016  RH  053%=      5-min Rain = 0
KCO1 191504Z 13002KT 11/02 A2999 RMK A01 T01080015  RH  053%=      5-min Rain = 0
KCO1 191505Z 12001KT 11/02 A2999 RMK A01 T01090015  RH  052%=      5-min Rain = 0
KCO1 191506Z 13001KT 11/02 A2999 RMK A01 T01100016  RH  052%=      5-min Rain = 0
KCO1 191507Z 12002KT 11/02 A2999 RMK A01 T01110015  RH  051%=      5-min Rain = 0
KCO1 191508Z 13001KT 11/01 A2999 RMK A01 T01110014  RH  051%=      5-min Rain = 0
KCO1 191509Z 14002KT 11/02 A2999 RMK A01 T01120015  RH  051%=      5-min Rain = 0
KCO1 191510Z 15001KT 11/01 A2999 RMK A01 T01130014  RH  050%=      5-min Rain = 0
KCO1 191511Z 14002KT 11/01 A2999 RMK A01 T01120013  RH  050%=      5-min Rain = 0
KCO1 191512Z 14002KT 11/02 A2999 RMK A01 T01130016  RH  051%=      5-min Rain = 0
KCO1 191513Z 15001KT 11/02 A2999 RMK A01 T01140015  RH  051%=      5-min Rain = 0
KCO1 191514Z 11002KT 11/02 A2999 RMK A01 T01140015  RH  050%=      5-min Rain = 0
KCO1 191515Z 09002KT 12/02 A2999 RMK A01 T01150017  RH  051%=      5-min Rain = 0
KCO1 191516Z 10002KT 12/02 A2999 RMK A01 T01160017  RH  051%=      5-min Rain = 0
KCO1 191517Z 11001KT 12/02 A2999 RMK A01 T01160015  RH  050%=      5-min Rain = 0
KCO1 191518Z 10001KT 12/02 A2999 RMK A01 T01160016  RH  050%=      5-min Rain = 0
KCO1 191519Z 09000KT 12/02 A2999 RMK A01 T01170018  RH  050%=      5-min Rain = 0
KCO1 191520Z 10001KT 12/02 A2999 RMK A01 T01190018  RH  050%=      5-min Rain = 0
KCO1 191521Z 11001KT 12/02 A2999 RMK A01 T01200017  RH  049%=      5-min Rain = 0
KCO1 191522Z 13000KT 12/02 A2999 RMK A01 T01210016  RH  048%=      5-min Rain = 0
KCO1 191523Z 00000KT 12/02 A2999 RMK A01 T01220016  RH  048%=      5-min Rain = 0
KCO1 191524Z 00000KT 12/02 A30 RMK A01 T01240016  RH  048%=      5-min Rain = 0
KCO1 191525Z 33001KT 13/02 A30 RMK A01 T01250017  RH  048%=      5-min Rain = 0
KCO1 191526Z 32001KT 13/02 A30 RMK A01 T01250017  RH  048%=      5-min Rain = 0
KCO1 191527Z 32001KT 12/02 A30 RMK A01 T01230015  RH  048%=      5-min Rain = 0
KCO1 191528Z 31001KT 12/02 A30 RMK A01 T01220018  RH  049%=      5-min Rain = 0
KCO1 191529Z 30001KT 12/02 A30 RMK A01 T01230018  RH  049%=      5-min Rain = 0
KCO1 191530Z 32001KT 12/02 A30 RMK A01 T01240019  RH  049%=      5-min Rain = 0
KCO1 191531Z 35001KT 13/02 A30 RMK A01 T01250019  RH  048%=      5-min Rain = 0
KCO1 191532Z 00001KT 13/02 A30 RMK A01 T01260019  RH  048%=      5-min Rain = 0
KCO1 191533Z 01001KT 13/02 A30 RMK A01 T01270020  RH  048%=      5-min Rain = 0
KCO1 191534Z 00000KT 13/02 A30 RMK A01 T01280020  RH  048%=      5-min Rain = 0
KCO1 191535Z 02001KT 13/02 A30 RMK A01 T01280019  RH  047%=      5-min Rain = 0
KCO1 191536Z 02001KT 13/02 A30 RMK A01 T01290020  RH  047%=      5-min Rain = 0
KCO1 191537Z 01001KT 13/02 A30 RMK A01 T01300019  RH  047%=      5-min Rain = 0
KCO1 191538Z 01000KT 13/02 A30 RMK A01 T01300017  RH  046%=      5-min Rain = 0
KCO1 191539Z 01000KT 13/02 A30 RMK A01 T01310018  RH  046%=      5-min Rain = 0
KCO1 191540Z 06001KT 13/02 A30 RMK A01 T01320017  RH  046%=      5-min Rain = 0
KCO1 191541Z 04001KT 13/02 A30 RMK A01 T01330017  RH  045%=      5-min Rain = 0
KCO1 191542Z 07001KT 13/02 A30 RMK A01 T01340016  RH  045%=      5-min Rain = 0
KCO1 191543Z 14001KT 14/02 A2999 RMK A01 T01350016  RH  044%=      5-min Rain = 0
KCO1 191544Z 25000KT 14/02 A2999 RMK A01 T01370017  RH  044%=      5-min Rain = 0
KCO1 191545Z 25000KT 14/02 A2999 RMK A01 T01390015  RH  043%=      5-min Rain = 0
KCO1 191546Z 25001KT 14/02 A30 RMK A01 T01410017  RH  043%=      5-min Rain = 0
KCO1 191547Z 24001KT 14/02 A30 RMK A01 T01440019  RH  043%=      5-min Rain = 0
KCO1 191548Z 24001KT 15/02 A30 RMK A01 T01450016  RH  041%=      5-min Rain = 0
KCO1 191549Z 25001KT 15/02 A30 RMK A01 T01480016  RH  041%=      5-min Rain = 0
KCO1 191550Z 26000KT 15/02 A30 RMK A01 T01510016  RH  040%=      5-min Rain = 0
KCO1 191551Z 00000KT 15/02 A30 RMK A01 T01510015  RH  040%=      5-min Rain = 0
KCO1 191552Z 00000KT 15/02 A30 RMK A01 T01500015  RH  040%=      5-min Rain = 0
KCO1 191553Z 00000KT 15/02 A30 RMK A01 T01510016  RH  040%=      5-min Rain = 0
KCO1 191554Z 00000KT 15/02 A30 RMK A01 T01520017  RH  040%=      5-min Rain = 0
KCO1 191555Z 00000KT 15/02 A30 RMK A01 T01510015  RH  040%=      5-min Rain = 0
KCO1 191556Z 33000KT 15/02 A30 RMK A01 T01510016  RH  040%=      5-min Rain = 0
KCO1 191557Z 30000KT 15/01 A30 RMK A01 T01500013  RH  039%=      5-min Rain = 0
KCO1 191558Z 00000KT 15/02 A30 RMK A01 T01510015  RH  040%=      5-min Rain = 0
KCO1 191559Z 00000KT 15/02 A30 RMK A01 T01520016  RH  040%=      5-min Rain = 0
KCO1 191600Z 00000KT 16/02 A30 RMK A01 T01550018  RH  040%=      5-min Rain = 0
KCO1 191601Z 30000KT 16/02 A30 RMK A01 T01560016  RH  039%=      5-min Rain = 0
KCO1 191602Z 29000KT 16/02 A30 RMK A01 T01580018  RH  039%=      5-min Rain = 0
KCO1 191603Z 27000KT 16/02 A30 RMK A01 T01590017  RH  038%=      5-min Rain = 0
KCO1 191604Z 26000KT 16/02 A30 RMK A01 T01600019  RH  039%=      5-min Rain = 0
KCO1 191605Z 32001KT 16/02 A30 RMK A01 T01610021  RH  039%=      5-min Rain = 0
KCO1 191606Z 30001KT 16/02 A30 RMK A01 T01600022  RH  039%=      5-min Rain = 0
KCO1 191607Z 27002KT 16/02 A30 RMK A01 T01590023  RH  040%=      5-min Rain = 0
KCO1 191608Z 25002KT 16/03 A30 RMK A01 T01580025  RH  041%=      5-min Rain = 0
KCO1 191609Z 25002KT 16/02 A30 RMK A01 T01570023  RH  041%=      5-min Rain = 0
KCO1 191610Z 25003KT 16/03 A30 RMK A01 T01570025  RH  041%=      5-min Rain = 0
KCO1 191611Z 25002KT 16/02 A30 RMK A01 T01560021  RH  040%=      5-min Rain = 0
KCO1 191612Z 27002KT 16/02 A30 RMK A01 T01550021  RH  040%=      5-min Rain = 0
KCO1 191613Z 28001KT 16/02 A30 RMK A01 T01560023  RH  041%=      5-min Rain = 0
KCO1 191614Z 29002KT 16/02 A30 RMK A01 T01560019  RH  040%=      5-min Rain = 0
KCO1 191615Z 28002KT 16/02 A30 RMK A01 T01560020  RH  040%=      5-min Rain = 0
KCO1 191616Z 30003KT 16/02 A30 RMK A01 T01560021  RH  040%=      5-min Rain = 0
KCO1 191617Z 30002KT 16/02 A30 RMK A01 T01550018  RH  039%=      5-min Rain = 0
KCO1 191618Z 30002KT 15/02 A30 RMK A01 T01540019  RH  040%=      5-min Rain = 0
KCO1 191619Z 28002KT 15/02 A30 RMK A01 T01540021  RH  040%=      5-min Rain = 0
KCO1 191620Z 27002KT 16/02 A30 RMK A01 T01570022  RH  040%=      5-min Rain = 0
KCO1 191621Z 27002KT 16/02 A30 RMK A01 T01580021  RH  040%=      5-min Rain = 0
KCO1 191622Z 28002KT 16/02 A30 RMK A01 T01590020  RH  039%=      5-min Rain = 0
KCO1 191623Z 28002KT 16/02 A30 RMK A01 T01600018  RH  038%=      5-min Rain = 0
KCO1 191624Z 27002KT 16/02 A30 RMK A01 T01600016  RH  038%=      5-min Rain = 0
KCO1 191625Z 26003KT 16/02 A30 RMK A01 T01600016  RH  038%=      5-min Rain = 0
KCO1 191626Z 27003KT 16/02 A30 RMK A01 T01610018  RH  038%=      5-min Rain = 0
KCO1 191627Z 27002KT 16/02 A30 RMK A01 T01620018  RH  038%=      5-min Rain = 0
KCO1 191628Z 27002KT 16/02 A30 RMK A01 T01630017  RH  037%=      5-min Rain = 0
KCO1 191629Z 26002KT 17/02 A30 RMK A01 T01650019  RH  037%=      5-min Rain = 0
KCO1 191630Z 25001KT 17/02 A30 RMK A01 T01650017  RH  037%=      5-min Rain = 0
KCO1 191631Z 21000KT 17/01 A30 RMK A01 T01660014  RH  036%=      5-min Rain = 0
KCO1 191632Z 00000KT 17/01 A30 RMK A01 T01670013  RH  035%=      5-min Rain = 0
KCO1 191633Z 00000KT 17/01 A2999 RMK A01 T01670013  RH  035%=      5-min Rain = 0
KCO1 191634Z 29000KT 17/01 A2999 RMK A01 T01680012  RH  035%=      5-min Rain = 0
KCO1 191635Z 06001KT 17/01 A2999 RMK A01 T01690012  RH  035%=      5-min Rain = 0
KCO1 191636Z 07000KT 17/01 A2999 RMK A01 T01690013  RH  035%=      5-min Rain = 0
KCO1 191637Z 07000KT 17/01 A2999 RMK A01 T01680013  RH  035%=      5-min Rain = 0
KCO1 191638Z 05000KT 17/01 A2999 RMK A01 T01700012  RH  034%=      5-min Rain = 0
KCO1 191639Z 06001KT 17/01 A2999 RMK A01 T01720014  RH  034%=      5-min Rain = 0
KCO1 191640Z 05002KT 17/02 A2999 RMK A01 T01730015  RH  035%=      5-min Rain = 0
KCO1 191641Z 05001KT 17/02 A2999 RMK A01 T01740015  RH  034%=      5-min Rain = 0
KCO1 191642Z 05001KT 17/02 A2999 RMK A01 T01740015  RH  034%=      5-min Rain = 0
KCO1 191643Z 01001KT 18/02 A2999 RMK A01 T01760016  RH  034%=      5-min Rain = 0
KCO1 191644Z 01001KT 18/02 A2999 RMK A01 T01770016  RH  034%=      5-min Rain = 0
KCO1 191645Z 00001KT 18/02 A2999 RMK A01 T01780017  RH  034%=      5-min Rain = 0
KCO1 191646Z 02000KT 18/02 A2999 RMK A01 T01780015  RH  033%=      5-min Rain = 0
KCO1 191647Z 07002KT 18/02 A2999 RMK A01 T01780017  RH  034%=      5-min Rain = 0
KCO1 191648Z 08003KT 18/02 A2999 RMK A01 T01780018  RH  034%=      5-min Rain = 0
KCO1 191649Z 07002KT 18/02 A2999 RMK A01 T01780017  RH  034%=      5-min Rain = 0
KCO1 191650Z 11002KT 18/02 A2999 RMK A01 T01780019  RH  034%=      5-min Rain = 0
KCO1 191651Z 10002KT 18/02 A2999 RMK A01 T01810018  RH  034%=      5-min Rain = 0
KCO1 191652Z 13003KT 18/02 A2999 RMK A01 T01830019  RH  033%=      5-min Rain = 0
KCO1 191653Z 13002KT 18/02 A2999 RMK A01 T01840018  RH  033%=      5-min Rain = 0
KCO1 191654Z 13001KT 19/02 A2999 RMK A01 T01850016  RH  032%=      5-min Rain = 0
KCO1 191655Z 07001KT 19/02 A2999 RMK A01 T01860019  RH  033%=      5-min Rain = 0
KCO1 191656Z 07003KT 19/02 A2999 RMK A01 T01880019  RH  032%=      5-min Rain = 0
KCO1 191657Z 08001KT 19/02 A2999 RMK A01 T01870018  RH  032%=      5-min Rain = 0
KCO1 191658Z 11002KT 19/02 A2999 RMK A01 T01860017  RH  032%=      5-min Rain = 0
KCO1 191659Z 10002KT 19/02 A2999 RMK A01 T01860017  RH  032%=      5-min Rain = 0
KCO1 191700Z 10002KT 19/02 A2999 RMK A01 T01860019  RH  033%=      5-min Rain = 0
KCO1 191701Z 10001KT 19/02 A2999 RMK A01 T01880018  RH  032%=      5-min Rain = 0
KCO1 191702Z 11001KT 19/02 A2998 RMK A01 T01910018  RH  032%=      5-min Rain = 0
KCO1 191703Z 09001KT 19/02 A2998 RMK A01 T01920019  RH  031%=      5-min Rain = 0
KCO1 191704Z 11002KT 19/02 A2998 RMK A01 T01930020  RH  031%=      5-min Rain = 0
KCO1 191705Z 10002KT 20/02 A2998 RMK A01 T01950018  RH  031%=      5-min Rain = 0
KCO1 191706Z 11003KT 20/02 A2998 RMK A01 T01950016  RH  030%=      5-min Rain = 0
KCO1 191707Z 12003KT 20/02 A2998 RMK A01 T01950017  RH  031%=      5-min Rain = 0
KCO1 191708Z 11003KT 20/02 A2998 RMK A01 T01950016  RH  030%=      5-min Rain = 0
KCO1 191709Z 11003KT 20/02 A2998 RMK A01 T01950017  RH  030%=      5-min Rain = 0
KCO1 191710Z 11002KT 20/02 A2998 RMK A01 T01960018  RH  031%=      5-min Rain = 0
KCO1 191711Z 12003KT 20/02 A2998 RMK A01 T01970019  RH  031%=      5-min Rain = 0
KCO1 191712Z 13003KT 20/02 A2998 RMK A01 T01990021  RH  031%=      5-min Rain = 0
KCO1 191713Z 12001KT 20/02 A2998 RMK A01 T02000020  RH  030%=      5-min Rain = 0
KCO1 191714Z 15001KT 20/02 A2998 RMK A01 T02020019  RH  030%=      5-min Rain = 0
KCO1 191715Z 08002KT 20/02 A2998 RMK A01 T02030019  RH  029%=      5-min Rain = 0
KCO1 191716Z 11003KT 20/02 A2998 RMK A01 T02040020  RH  030%=      5-min Rain = 0
KCO1 191717Z 10001KT 20/02 A2998 RMK A01 T02040020  RH  029%=      5-min Rain = 0
KCO1 191718Z 11003KT 21/02 A2998 RMK A01 T02050020  RH  029%=      5-min Rain = 0
KCO1 191719Z 11001KT 21/02 A2998 RMK A01 T02060016  RH  028%=      5-min Rain = 0
KCO1 191720Z 13003KT 21/02 A2998 RMK A01 T02060017  RH  028%=      5-min Rain = 0
KCO1 191721Z 14003KT 21/01 A2998 RMK A01 T02070014  RH  028%=      5-min Rain = 0
KCO1 191722Z 14003KT 21/01 A2998 RMK A01 T02070014  RH  028%=      5-min Rain = 0
KCO1 191723Z 15003KT 21/01 A2997 RMK A01 T02070012  RH  027%=      5-min Rain = 0
KCO1 191724Z 13002KT 21/01 A2997 RMK A01 T02060012  RH  028%=      5-min Rain = 0
KCO1 191725Z 14002KT 21/02 A2997 RMK A01 T02070016  RH  028%=      5-min Rain = 0
KCO1 191726Z 15003KT 21/02 A2997 RMK A01 T02080018  RH  028%=      5-min Rain = 0
KCO1 191727Z 13003KT 21/01 A2997 RMK A01 T02090012  RH  027%=      5-min Rain = 0
KCO1 191728Z 11003KT 21/01 A2997 RMK A01 T02100013  RH  027%=      5-min Rain = 0
KCO1 191729Z 10002KT 21/01 A2997 RMK A01 T02090014  RH  027%=      5-min Rain = 0
KCO1 191730Z 14002KT 21/01 A2997 RMK A01 T02090014  RH  027%=      5-min Rain = 0
KCO1 191731Z 17001KT 21/01 A2997 RMK A01 T02100008  RH  026%=      5-min Rain = 0
KCO1 191732Z 11002KT 21/01 A2997 RMK A01 T02110012  RH  027%=      5-min Rain = 0
KCO1 191733Z 08001KT 21/02 A2997 RMK A01 T02120018  RH  028%=      5-min Rain = 0
KCO1 191734Z 06002KT 21/02 A2997 RMK A01 T02130017  RH  027%=      5-min Rain = 0
KCO1 191735Z 08001KT 21/02 A2997 RMK A01 T02130016  RH  027%=      5-min Rain = 0
KCO1 191736Z 12001KT 21/02 A2997 RMK A01 T02120017  RH  027%=      5-min Rain = 0
KCO1 191737Z 15001KT 21/02 A2997 RMK A01 T02130015  RH  027%=      5-min Rain = 0
KCO1 191738Z 09000KT 21/02 A2997 RMK A01 T02130015  RH  027%=      5-min Rain = 0
KCO1 191739Z 15001KT 21/02 A2997 RMK A01 T02140017  RH  027%=      5-min Rain = 0
KCO1 191740Z 18001KT 22/02 A2997 RMK A01 T02160015  RH  026%=      5-min Rain = 0
KCO1 191741Z 17001KT 22/01 A2996 RMK A01 T02160013  RH  026%=      5-min Rain = 0
KCO1 191742Z 10002KT 22/01 A2996 RMK A01 T02170013  RH  026%=      5-min Rain = 0
KCO1 191743Z 12003KT 22/01 A2996 RMK A01 T02170013  RH  026%=      5-min Rain = 0
KCO1 191744Z 14002KT 22/01 A2996 RMK A01 T02170013  RH  026%=      5-min Rain = 0
KCO1 191745Z 10001KT 22/01 A2996 RMK A01 T02160012  RH  026%=      5-min Rain = 0
KCO1 191746Z 09002KT 22/02 A2996 RMK A01 T02170016  RH  026%=      5-min Rain = 0
KCO1 191747Z 11003KT 22/02 A2996 RMK A01 T02190016  RH  026%=      5-min Rain = 0
KCO1 191748Z 13002KT 22/01 A2996 RMK A01 T02200014  RH  026%=      5-min Rain = 0
KCO1 191749Z 09003KT 22/02 A2996 RMK A01 T02220018  RH  026%=      5-min Rain = 0
KCO1 191750Z 09003KT 22/01 A2996 RMK A01 T02230013  RH  025%=      5-min Rain = 0
KCO1 191751Z 11002KT 22/01 A2996 RMK A01 T02210014  RH  025%=      5-min Rain = 0
KCO1 191752Z 14002KT 22/01 A2995 RMK A01 T02210014  RH  025%=      5-min Rain = 0
KCO1 191753Z 13002KT 22/02 A2995 RMK A01 T02230015  RH  025%=      5-min Rain = 0
KCO1 191754Z 11002KT 22/02 A2995 RMK A01 T02240015  RH  025%=      5-min Rain = 0
KCO1 191755Z 11004KT 23/02 A2995 RMK A01 T02260016  RH  025%=      5-min Rain = 0
KCO1 191756Z 14003KT 23/02 A2995 RMK A01 T02270015  RH  025%=      5-min Rain = 0
KCO1 191757Z 12003KT 23/01 A2995 RMK A01 T02270013  RH  024%=      5-min Rain = 0
KCO1 191758Z 13005KT 23/01 A2995 RMK A01 T02290011  RH  024%=      5-min Rain = 0
KCO1 191759Z 13003KT 23/01 A2995 RMK A01 T02310010  RH  023%=      5-min Rain = 0
KCO1 191800Z 13004KT 23/01 A2995 RMK A01 T02310009  RH  023%=      5-min Rain = 0
KCO1 191801Z 13003KT 23/01 A2995 RMK A01 T02310010  RH  023%=      5-min Rain = 0
KCO1 191802Z 13004KT 23/01 A2995 RMK A01 T02320010  RH  023%=      5-min Rain = 0
KCO1 191803Z 12003KT 23/01 A2995 RMK A01 T02340013  RH  023%=      5-min Rain = 0
KCO1 191804Z 11003KT 23/01 A2995 RMK A01 T02340009  RH  023%=      5-min Rain = 0
KCO1 191805Z 09004KT 23/01 A2995 RMK A01 T02340013  RH  023%=      5-min Rain = 0
KCO1 191806Z 09005KT 23/02 A2995 RMK A01 T02340015  RH  024%=      5-min Rain = 0
KCO1 191807Z 10003KT 24/01 A2994 RMK A01 T02350014  RH  023%=      5-min Rain = 0
KCO1 191808Z 11002KT 23/01 A2994 RMK A01 T02330011  RH  023%=      5-min Rain = 0
KCO1 191809Z 15002KT 23/01 A2994 RMK A01 T02320012  RH  023%=      5-min Rain = 0
KCO1 191810Z 16001KT 23/01 A2994 RMK A01 T02330014  RH  024%=      5-min Rain = 0
KCO1 191811Z 12002KT 24/01 A2994 RMK A01 T02350014  RH  023%=      5-min Rain = 0
KCO1 191812Z 09002KT 24/01 A2994 RMK A01 T02370012  RH  023%=      5-min Rain = 0
KCO1 191813Z 11003KT 24/02 A2994 RMK A01 T02370015  RH  023%=      5-min Rain = 0
KCO1 191814Z 15004KT 24/01 A2994 RMK A01 T02390012  RH  022%=      5-min Rain = 0
KCO1 191815Z 14003KT 24/01 A2994 RMK A01 T02400008  RH  022%=      5-min Rain = 0
KCO1 191816Z 17003KT 24/01 A2994 RMK A01 T02390009  RH  022%=      5-min Rain = 0
KCO1 191817Z 19001KT 24/01 A2994 RMK A01 T02390010  RH  022%=      5-min Rain = 0
KCO1 191818Z 19001KT 24/01 A2994 RMK A01 T02380009  RH  022%=      5-min Rain = 0
KCO1 191819Z 14003KT 24/01 A2994 RMK A01 T02380012  RH  023%=      5-min Rain = 0
KCO1 191820Z 13004KT 24/02 A2994 RMK A01 T02410016  RH  023%=      5-min Rain = 0
KCO1 191821Z 14005KT 24/01 A2994 RMK A01 T02430013  RH  022%=      5-min Rain = 0
KCO1 191822Z 14004KT 24/01 A2994 RMK A01 T02430013  RH  022%=      5-min Rain = 0
KCO1 191823Z 15003KT 24/01 A2993 RMK A01 T02420008  RH  021%=      5-min Rain = 0
KCO1 191824Z 13005KT 24/01 A2993 RMK A01 T02410008  RH  022%=      5-min Rain = 0
KCO1 191825Z 14005KT 24/01 A2993 RMK A01 T02410010  RH  022%=      5-min Rain = 0
KCO1 191826Z 14003KT 24/01 A2993 RMK A01 T02410008  RH  022%=      5-min Rain = 0
KCO1 191827Z 12003KT 24/01 A2993 RMK A01 T02410010  RH  022%=      5-min Rain = 0
KCO1 191828Z 13002KT 24/01 A2993 RMK A01 T02430007  RH  021%=      5-min Rain = 0
KCO1 191829Z 14005KT 25/01 A2993 RMK A01 T02450009  RH  021%=      5-min Rain = 0
KCO1 191830Z 15005KT 25/01 A2993 RMK A01 T02450007  RH  021%=      5-min Rain = 0
KCO1 191831Z 12006KT 24/01 A2993 RMK A01 T02440011  RH  022%=      5-min Rain = 0
KCO1 191832Z 12006KT 25/01 A2993 RMK A01 T02450009  RH  021%=      5-min Rain = 0
KCO1 191833Z 12004KT 24/01 A2993 RMK A01 T02440009  RH  021%=      5-min Rain = 0
KCO1 191834Z 10004KT 24/01 A2993 RMK A01 T02440009  RH  021%=      5-min Rain = 0
KCO1 191835Z 11005KT 24/01 A2992 RMK A01 T02430008  RH  021%=      5-min Rain = 0
KCO1 191836Z 10004KT 24/01 A2992 RMK A01 T02430010  RH  022%=      5-min Rain = 0
KCO1 191837Z 10004KT 24/01 A2992 RMK A01 T02440011  RH  022%=      5-min Rain = 0
KCO1 191838Z 13005KT 25/01 A2992 RMK A01 T02460008  RH  021%=      5-min Rain = 0
KCO1 191839Z 14003KT 25/01 A2992 RMK A01 T02450007  RH  021%=      5-min Rain = 0
KCO1 191840Z 14005KT 25/01 A2992 RMK A01 T02450009  RH  021%=      5-min Rain = 0
KCO1 191841Z 12004KT 25/01 A2992 RMK A01 T02470007  RH  021%=      5-min Rain = 0
KCO1 191842Z 09003KT 25/01 A2992 RMK A01 T02460008  RH  021%=      5-min Rain = 0
KCO1 191843Z 09002KT 25/01 A2992 RMK A01 T02470013  RH  022%=      5-min Rain = 0
KCO1 191844Z 09004KT 25/01 A2992 RMK A01 T02490010  RH  021%=      5-min Rain = 0
KCO1 191845Z 13004KT 25/01 A2991 RMK A01 T02510011  RH  021%=      5-min Rain = 0
KCO1 191846Z 10004KT 25/01 A2991 RMK A01 T02510010  RH  021%=      5-min Rain = 0
KCO1 191847Z 11006KT 25/01 A2991 RMK A01 T02520010  RH  020%=      5-min Rain = 0
KCO1 191848Z 10005KT 25/01 A2991 RMK A01 T02530008  RH  020%=      5-min Rain = 0
KCO1 191849Z 11005KT 25/01 A2991 RMK A01 T02530008  RH  020%=      5-min Rain = 0
KCO1 191850Z 11006KT 25/01 A2991 RMK A01 T02530009  RH  020%=      5-min Rain = 0
KCO1 191851Z 12005KT 25/01 A2991 RMK A01 T02540009  RH  020%=      5-min Rain = 0
KCO1 191852Z 12005KT 26/01 A2991 RMK A01 T02550010  RH  020%=      5-min Rain = 0
KCO1 191853Z 12005KT 26/01 A2991 RMK A01 T02550007  RH  020%=      5-min Rain = 0
KCO1 191854Z 10006KT 26/01 A2991 RMK A01 T02550009  RH  020%=      5-min Rain = 0
KCO1 191855Z 10005KT 26/01 A2991 RMK A01 T02550006  RH  020%=      5-min Rain = 0
KCO1 191856Z 11004KT 26/01 A2991 RMK A01 T02550005  RH  019%=      5-min Rain = 0
KCO1 191857Z 12005KT 25/01 A2991 RMK A01 T02540009  RH  020%=      5-min Rain = 0
KCO1 191858Z 11006KT 26/01 A2991 RMK A01 T02550008  RH  020%=      5-min Rain = 0
KCO1 191859Z 12004KT 26/01 A299 RMK A01 T02550007  RH  020%=      5-min Rain = 0
KCO1 191900Z 11003KT 26/01 A299 RMK A01 T02550005  RH  019%=      5-min Rain = 0
KCO1 191901Z 10004KT 26/01 A299 RMK A01 T02560008  RH  020%=      5-min Rain = 0
KCO1 191902Z 12006KT 26/01 A299 RMK A01 T02570006  RH  019%=      5-min Rain = 0
KCO1 191903Z 13006KT 26/01 A299 RMK A01 T02560006  RH  019%=      5-min Rain = 0
KCO1 191904Z 14004KT 26/00 A299 RMK A01 T02550002  RH  019%=      5-min Rain = 0
KCO1 191905Z 13007KT 25/01 A299 RMK A01 T02540007  RH  020%=      5-min Rain = 0
KCO1 191906Z 14006KT 26/01 A299 RMK A01 T02550006  RH  020%=      5-min Rain = 0
KCO1 191907Z 13004KT 26/00 A299 RMK A01 T02550004  RH  019%=      5-min Rain = 0
KCO1 191908Z 13006KT 26/01 A299 RMK A01 T02560005  RH  019%=      5-min Rain = 0
KCO1 191909Z 14004KT 26/00 A299 RMK A01 T02570002  RH  019%=      5-min Rain = 0
KCO1 191910Z 15006KT 26/00 A299 RMK A01 T02570002  RH  019%=      5-min Rain = 0
KCO1 191911Z 13006KT 26/00 A299 RMK A01 T02590003  RH  019%=      5-min Rain = 0
KCO1 191912Z 12005KT 26/00 A299 RMK A01 T02590001  RH  019%=      5-min Rain = 0
KCO1 191913Z 13004KT 26/00 A299 RMK A01 T02580003  RH  019%=      5-min Rain = 0
KCO1 191914Z 14004KT 26/00 A299 RMK A01 T02590004  RH  019%=      5-min Rain = 0
KCO1 191915Z 16005KT 26/00 A299 RMK A01 T02610003  RH  019%=      5-min Rain = 0
KCO1 191916Z 14005KT 26/00 A299 RMK A01 T02620001  RH  018%=      5-min Rain = 0
KCO1 191917Z 13005KT 26/00 A299 RMK A01 T02610001  RH  018%=      5-min Rain = 0
KCO1 191918Z 14006KT 26/00 A299 RMK A01 T02610003  RH  019%=      5-min Rain = 0
KCO1 191919Z 15006KT 26/00 A299 RMK A01 T02610001  RH  018%=      5-min Rain = 0
KCO1 191920Z 14006KT 26/00 A299 RMK A01 T02620002  RH  018%=      5-min Rain = 0
KCO1 191921Z 15006KT 26/00 A299 RMK A01 T02620002  RH  018%=      5-min Rain = 0
KCO1 191922Z 15003KT 26/M00 A299 RMK A01 T02631001  RH  018%=      5-min Rain = 0
KCO1 191923Z 15003KT 26/00 A299 RMK A01 T02630001  RH  018%=      5-min Rain = 0
KCO1 191924Z 13003KT 26/00 A299 RMK A01 T02640004  RH  018%=      5-min Rain = 0
KCO1 191925Z 14004KT 27/00 A299 RMK A01 T02660001  RH  018%=      5-min Rain = 0
KCO1 191926Z 13004KT 27/00 A299 RMK A01 T026600-0  RH  018%=      5-min Rain = 0
KCO1 191927Z 14004KT 27/00 A2989 RMK A01 T02650002  RH  018%=      5-min Rain = 0
KCO1 191928Z 18003KT 27/00 A2989 RMK A01 T02650000  RH  018%=      5-min Rain = 0
KCO1 191929Z 19002KT 26/M00 A2989 RMK A01 T02641001  RH  018%=      5-min Rain = 0
KCO1 191930Z 26001KT 26/M00 A2989 RMK A01 T02641002  RH  017%=      5-min Rain = 0
KCO1 191931Z 21002KT 26/M00 A2989 RMK A01 T02641001  RH  018%=      5-min Rain = 0
KCO1 191932Z 17005KT 27/00 A2989 RMK A01 T02650004  RH  018%=      5-min Rain = 0
KCO1 191933Z 17005KT 27/00 A2989 RMK A01 T02670003  RH  018%=      5-min Rain = 0
KCO1 191934Z 18003KT 27/M00 A2989 RMK A01 T02681001  RH  017%=      5-min Rain = 0
KCO1 191935Z 18001KT 27/M00 A2989 RMK A01 T02671002  RH  017%=      5-min Rain = 0
KCO1 191936Z 14004KT 27/M00 A2989 RMK A01 T02671002  RH  017%=      5-min Rain = 0
KCO1 191937Z 14005KT 27/00 A2989 RMK A01 T02670000  RH  017%=      5-min Rain = 0
KCO1 191938Z 14006KT 27/00 A2989 RMK A01 T02670000  RH  017%=      5-min Rain = 0
KCO1 191939Z 14004KT 27/00 A2988 RMK A01 T02670000  RH  017%=      5-min Rain = 0
KCO1 191940Z 12005KT 27/00 A2988 RMK A01 T02680000  RH  017%=      5-min Rain = 0
KCO1 191941Z 12003KT 27/M00 A2988 RMK A01 T02691001  RH  017%=      5-min Rain = 0
KCO1 191942Z 14003KT 27/00 A2988 RMK A01 T02700002  RH  017%=      5-min Rain = 0
KCO1 191943Z 12003KT 27/01 A2988 RMK A01 T02710005  RH  018%=      5-min Rain = 0
KCO1 191944Z 16004KT 27/00 A2988 RMK A01 T02730003  RH  017%=      5-min Rain = 0
KCO1 191945Z 20002KT 27/00 A2988 RMK A01 T02730002  RH  017%=      5-min Rain = 0
KCO1 191946Z 19002KT 27/00 A2988 RMK A01 T02720000  RH  017%=      5-min Rain = 0
KCO1 191947Z 18002KT 27/00 A2988 RMK A01 T027100-0  RH  017%=      5-min Rain = 0
KCO1 191948Z 18005KT 27/M01 A2988 RMK A01 T02701005  RH  017%=      5-min Rain = 0
KCO1 191949Z 20006KT 27/M01 A2988 RMK A01 T02701006  RH  016%=      5-min Rain = 0
KCO1 191950Z 21006KT 27/M00 A2988 RMK A01 T02711003  RH  017%=      5-min Rain = 0
KCO1 191951Z 20004KT 27/M00 A2988 RMK A01 T02721001  RH  017%=      5-min Rain = 0
KCO1 191952Z 18005KT 27/00 A2988 RMK A01 T027400-0  RH  017%=      5-min Rain = 0
KCO1 191953Z 17005KT 28/M01 A2988 RMK A01 T02751005  RH  016%=      5-min Rain = 0
KCO1 191954Z 15003KT 27/M01 A2988 RMK A01 T02741009  RH  016%=      5-min Rain = 0
KCO1 191955Z 18004KT 27/M01 A2987 RMK A01 T02731005  RH  016%=      5-min Rain = 0
KCO1 191956Z 18002KT 27/M01 A2987 RMK A01 T02741007  RH  016%=      5-min Rain = 0
KCO1 191957Z 15000KT 27/M01 A2987 RMK A01 T02741009  RH  016%=      5-min Rain = 0
KCO1 191958Z 14001KT 27/M01 A2987 RMK A01 T02741009  RH  016%=      5-min Rain = 0
KCO1 191959Z 09001KT 28/M00 A2987 RMK A01 T02751002  RH  016%=      5-min Rain = 0
KCO1 192000Z 12002KT 28/M00 A2987 RMK A01 T02761003  RH  016%=      5-min Rain = 0
KCO1 192001Z 16001KT 28/M00 A2987 RMK A01 T02761004  RH  016%=      5-min Rain = 0
KCO1 192002Z 13002KT 28/M00 A2987 RMK A01 T02761003  RH  016%=      5-min Rain = 0
KCO1 192003Z 14003KT 28/M00 A2987 RMK A01 T02771001  RH  016%=      5-min Rain = 0
KCO1 192004Z 13004KT 28/M00 A2987 RMK A01 T02781003  RH  016%=      5-min Rain = 0
KCO1 192005Z 13004KT 28/M00 A2987 RMK A01 T02771004  RH  016%=      5-min Rain = 0
KCO1 192006Z 13003KT 27/M00 A2987 RMK A01 T02741001  RH  017%=      5-min Rain = 0
KCO1 192007Z 18004KT 27/M00 A2987 RMK A01 T02741002  RH  016%=      5-min Rain = 0
KCO1 192008Z 19004KT 28/M01 A2987 RMK A01 T02761005  RH  016%=      5-min Rain = 0
KCO1 192009Z 18002KT 28/M01 A2987 RMK A01 T02771009  RH  015%=      5-min Rain = 0
KCO1 192010Z 17003KT 28/M01 A2987 RMK A01 T02771005  RH  016%=      5-min Rain = 0
KCO1 192011Z 15002KT 28/M01 A2987 RMK A01 T02791007  RH  015%=      5-min Rain = 0
KCO1 192012Z 15001KT 28/M01 A2987 RMK A01 T02781010  RH  015%=      5-min Rain = 0
KCO1 192013Z 16004KT 28/M01 A2987 RMK A01 T02771013  RH  015%=      5-min Rain = 0
KCO1 192014Z 17002KT 28/M02 A2987 RMK A01 T02761015  RH  015%=      5-min Rain = 0
KCO1 192015Z 18004KT 28/M01 A2986 RMK A01 T02761012  RH  015%=      5-min Rain = 0
KCO1 192016Z 25005KT 28/M01 A2986 RMK A01 T02771013  RH  015%=      5-min Rain = 0
KCO1 192017Z 22003KT 28/M02 A2986 RMK A01 T02771015  RH  015%=      5-min Rain = 0
KCO1 192018Z 26003KT 28/M02 A2986 RMK A01 T02761016  RH  015%=      5-min Rain = 0
KCO1 192019Z 24002KT 28/M02 A2986 RMK A01 T02761020  RH  014%=      5-min Rain = 0
KCO1 192020Z 24001KT 27/M02 A2986 RMK A01 T02741020  RH  014%=      5-min Rain = 0
KCO1 192021Z 19004KT 27/M02 A2986 RMK A01 T02741017  RH  015%=      5-min Rain = 0
KCO1 192022Z 20005KT 28/M02 A2986 RMK A01 T02751015  RH  015%=      5-min Rain = 0
KCO1 192023Z 18004KT 28/M01 A2986 RMK A01 T02751014  RH  015%=      5-min Rain = 0
KCO1 192024Z 19003KT 28/M02 A2986 RMK A01 T02761015  RH  015%=      5-min Rain = 0
KCO1 192025Z 21003KT 28/M01 A2986 RMK A01 T02771009  RH  015%=      5-min Rain = 0
KCO1 192026Z 24003KT 28/M01 A2986 RMK A01 T02791009  RH  015%=      5-min Rain = 0
KCO1 192027Z 23004KT 28/M01 A2986 RMK A01 T02791011  RH  015%=      5-min Rain = 0
KCO1 192028Z 24002KT 28/M01 A2986 RMK A01 T02791013  RH  015%=      5-min Rain = 0
KCO1 192029Z 25003KT 28/M01 A2986 RMK A01 T02781010  RH  015%=      5-min Rain = 0
KCO1 192030Z 24004KT 28/M01 A2986 RMK A01 T02781013  RH  015%=      5-min Rain = 0
KCO1 192031Z 25001KT 28/M01 A2985 RMK A01 T02771013  RH  015%=      5-min Rain = 0
KCO1 192032Z 32000KT 28/M01 A2985 RMK A01 T02781009  RH  015%=      5-min Rain = 0
KCO1 192033Z 32000KT 28/M01 A2985 RMK A01 T02791010  RH  015%=      5-min Rain = 0
KCO1 192034Z 28001KT 28/M01 A2985 RMK A01 T02801010  RH  015%=      5-min Rain = 0
KCO1 192035Z 25001KT 28/M01 A2985 RMK A01 T02811012  RH  015%=      5-min Rain = 0
KCO1 192036Z 17003KT 28/M01 A2985 RMK A01 T02831010  RH  015%=      5-min Rain = 0
KCO1 192037Z 16004KT 28/M02 A2985 RMK A01 T02841018  RH  014%=      5-min Rain = 0
KCO1 192038Z 19004KT 28/M02 A2985 RMK A01 T02841019  RH  014%=      5-min Rain = 0
KCO1 192039Z 18005KT 28/M02 A2985 RMK A01 T02831019  RH  014%=      5-min Rain = 0
KCO1 192040Z 17006KT 28/M02 A2985 RMK A01 T02821017  RH  014%=      5-min Rain = 0
KCO1 192041Z 19004KT 28/M02 A2985 RMK A01 T02821020  RH  014%=      5-min Rain = 0
KCO1 192042Z 18003KT 28/M02 A2985 RMK A01 T02801022  RH  014%=      5-min Rain = 0
KCO1 192043Z 17003KT 28/M02 A2985 RMK A01 T02801022  RH  014%=      5-min Rain = 0
KCO1 192044Z 18002KT 28/M03 A2985 RMK A01 T02801025  RH  013%=      5-min Rain = 0
KCO1 192045Z 17003KT 28/M02 A2984 RMK A01 T02811023  RH  014%=      5-min Rain = 0
KCO1 192046Z 16002KT 28/M02 A2984 RMK A01 T02811023  RH  014%=      5-min Rain = 0
KCO1 192047Z 15000KT 28/M02 A2984 RMK A01 T02821024  RH  013%=      5-min Rain = 0
KCO1 192048Z 16002KT 28/M02 A2984 RMK A01 T02831023  RH  013%=      5-min Rain = 0
KCO1 192049Z 16003KT 28/M02 A2984 RMK A01 T02841021  RH  014%=      5-min Rain = 0
KCO1 192050Z 17003KT 29/M02 A2984 RMK A01 T02851021  RH  013%=      5-min Rain = 0
KCO1 192051Z 18004KT 29/M02 A2984 RMK A01 T02851021  RH  013%=      5-min Rain = 0
KCO1 192052Z 20004KT 29/M02 A2984 RMK A01 T02851021  RH  013%=      5-min Rain = 0
KCO1 192053Z 20005KT 29/M02 A2984 RMK A01 T02861022  RH  013%=      5-min Rain = 0
KCO1 192054Z 20004KT 29/M02 A2984 RMK A01 T02861020  RH  013%=      5-min Rain = 0
KCO1 192055Z 19003KT 29/M02 A2984 RMK A01 T02851024  RH  013%=      5-min Rain = 0
KCO1 192056Z 19002KT 29/M02 A2984 RMK A01 T02851022  RH  013%=      5-min Rain = 0
KCO1 192057Z 20001KT 28/M03 A2984 RMK A01 T02841028  RH  013%=      5-min Rain = 0
KCO1 192058Z 00000KT 28/M03 A2984 RMK A01 T02831026  RH  013%=      5-min Rain = 0
KCO1 192059Z 09001KT 28/M02 A2984 RMK A01 T02821024  RH  013%=      5-min Rain = 0
KCO1 192100Z 11001KT 28/M03 A2984 RMK A01 T02811025  RH  013%=      5-min Rain = 0
KCO1 192101Z 12003KT 28/M03 A2984 RMK A01 T02801025  RH  013%=      5-min Rain = 0
KCO1 192102Z 13005KT 28/M02 A2984 RMK A01 T02791018  RH  014%=      5-min Rain = 0
KCO1 192103Z 13005KT 28/M02 A2984 RMK A01 T02791017  RH  014%=      5-min Rain = 0
KCO1 192104Z 11003KT 28/M02 A2984 RMK A01 T02781020  RH  014%=      5-min Rain = 0
KCO1 192105Z 12003KT 28/M02 A2984 RMK A01 T02771019  RH  014%=      5-min Rain = 0
KCO1 192106Z 17002KT 28/M02 A2984 RMK A01 T02781018  RH  014%=      5-min Rain = 0
KCO1 192107Z 19002KT 28/M02 A2984 RMK A01 T02791023  RH  014%=      5-min Rain = 0
KCO1 192108Z 17001KT 28/M02 A2984 RMK A01 T02791024  RH  014%=      5-min Rain = 0
KCO1 192109Z 14002KT 28/M02 A2984 RMK A01 T02791022  RH  014%=      5-min Rain = 0
KCO1 192110Z 13003KT 28/M02 A2984 RMK A01 T02791020  RH  014%=      5-min Rain = 0
KCO1 192111Z 13003KT 28/M02 A2984 RMK A01 T02791022  RH  014%=      5-min Rain = 0
KCO1 192112Z 13004KT 28/M02 A2984 RMK A01 T02781018  RH  014%=      5-min Rain = 0
KCO1 192113Z 13004KT 28/M02 A2984 RMK A01 T02761016  RH  015%=      5-min Rain = 0
KCO1 192114Z 13003KT 28/M02 A2984 RMK A01 T02761020  RH  014%=      5-min Rain = 0
KCO1 192115Z 12002KT 28/M02 A2983 RMK A01 T02751022  RH  014%=      5-min Rain = 0
KCO1 192116Z 13004KT 28/M02 A2983 RMK A01 T02751016  RH  015%=      5-min Rain = 0
KCO1 192117Z 14003KT 28/M02 A2983 RMK A01 T02751019  RH  015%=      5-min Rain = 0
KCO1 192118Z 12002KT 28/M02 A2983 RMK A01 T02751020  RH  014%=      5-min Rain = 0
KCO1 192119Z 12002KT 28/M01 A2983 RMK A01 T02761013  RH  015%=      5-min Rain = 0
KCO1 192120Z 11002KT 28/M02 A2983 RMK A01 T02771017  RH  015%=      5-min Rain = 0
KCO1 192121Z 11004KT 28/M01 A2983 RMK A01 T02781013  RH  015%=      5-min Rain = 0
KCO1 192122Z 12003KT 28/M01 A2983 RMK A01 T02801010  RH  015%=      5-min Rain = 0
KCO1 192123Z 13003KT 28/M01 A2983 RMK A01 T02821009  RH  015%=      5-min Rain = 0
KCO1 192124Z 14004KT 28/M01 A2983 RMK A01 T02841010  RH  015%=      5-min Rain = 0
KCO1 192125Z 17003KT 29/M01 A2983 RMK A01 T02851014  RH  014%=      5-min Rain = 0
KCO1 192126Z 15003KT 29/M01 A2983 RMK A01 T02871014  RH  014%=      5-min Rain = 0
KCO1 192127Z 15003KT 29/M02 A2983 RMK A01 T02881018  RH  014%=      5-min Rain = 0
KCO1 192128Z 13002KT 29/M02 A2983 RMK A01 T02881019  RH  013%=      5-min Rain = 0
KCO1 192129Z 12003KT 29/M02 A2983 RMK A01 T02871015  RH  014%=      5-min Rain = 0
KCO1 192130Z 13003KT 29/M02 A2983 RMK A01 T02861016  RH  014%=      5-min Rain = 0
KCO1 192131Z 12003KT 29/M02 A2983 RMK A01 T02851015  RH  014%=      5-min Rain = 0
KCO1 192132Z 15003KT 29/M02 A2983 RMK A01 T02851015  RH  014%=      5-min Rain = 0
KCO1 192133Z 15003KT 29/M02 A2983 RMK A01 T02851016  RH  014%=      5-min Rain = 0
KCO1 192134Z 14004KT 29/M02 A2983 RMK A01 T02871017  RH  014%=      5-min Rain = 0
KCO1 192135Z 14003KT 29/M02 A2983 RMK A01 T02871021  RH  013%=      5-min Rain = 0
KCO1 192136Z 13004KT 29/M02 A2983 RMK A01 T02871020  RH  013%=      5-min Rain = 0
KCO1 192137Z 13005KT 29/M02 A2983 RMK A01 T02871018  RH  014%=      5-min Rain = 0
KCO1 192138Z 13006KT 29/M02 A2983 RMK A01 T02861020  RH  013%=      5-min Rain = 0
KCO1 192139Z 12005KT 28/M02 A2983 RMK A01 T02841021  RH  014%=      5-min Rain = 0
KCO1 192140Z 14006KT 28/M02 A2983 RMK A01 T02821021  RH  014%=      5-min Rain = 0
KCO1 192141Z 12005KT 28/M02 A2983 RMK A01 T02811022  RH  014%=      5-min Rain = 0
KCO1 192142Z 14005KT 28/M02 A2983 RMK A01 T02811019  RH  014%=      5-min Rain = 0
KCO1 192143Z 14005KT 28/M02 A2983 RMK A01 T02801021  RH  014%=      5-min Rain = 0
KCO1 192144Z 14005KT 28/M02 A2983 RMK A01 T02791023  RH  014%=      5-min Rain = 0
KCO1 192145Z 14005KT 28/M02 A2983 RMK A01 T02791019  RH  014%=      5-min Rain = 0
KCO1 192146Z 14005KT 28/M02 A2983 RMK A01 T02781021  RH  014%=      5-min Rain = 0
KCO1 192147Z 14005KT 28/M02 A2983 RMK A01 T02771024  RH  014%=      5-min Rain = 0
KCO1 192148Z 14004KT 28/M03 A2983 RMK A01 T02761026  RH  014%=      5-min Rain = 0
KCO1 192149Z 14003KT 28/M02 A2983 RMK A01 T02751022  RH  014%=      5-min Rain = 0
KCO1 192150Z 15004KT 28/M02 A2983 RMK A01 T02751018  RH  015%=      5-min Rain = 0
KCO1 192151Z 13005KT 27/M02 A2983 RMK A01 T02741015  RH  015%=      5-min Rain = 0
KCO1 192152Z 17006KT 27/M02 A2983 RMK A01 T02731015  RH  015%=      5-min Rain = 0
KCO1 192153Z 17005KT 27/M02 A2983 RMK A01 T02721016  RH  015%=      5-min Rain = 0
KCO1 192154Z 17006KT 27/M02 A2983 RMK A01 T02711017  RH  015%=      5-min Rain = 0
KCO1 192155Z 16005KT 27/M02 A2983 RMK A01 T02701019  RH  015%=      5-min Rain = 0
KCO1 192156Z 15004KT 27/M02 A2983 RMK A01 T02691017  RH  015%=      5-min Rain = 0
KCO1 192157Z 14004KT 27/M01 A2983 RMK A01 T02691012  RH  016%=      5-min Rain = 0
KCO1 192158Z 13005KT 27/M01 A2983 RMK A01 T02671013  RH  016%=      5-min Rain = 0
KCO1 192159Z 13005KT 27/M01 A2983 RMK A01 T02661012  RH  016%=      5-min Rain = 0
KCO1 192200Z 13005KT 27/M01 A2983 RMK A01 T02651009  RH  016%=      5-min Rain = 0
KCO1 192201Z 13005KT 26/M01 A2983 RMK A01 T02641010  RH  017%=      5-min Rain = 0
KCO1 192202Z 13005KT 26/M01 A2983 RMK A01 T02631010  RH  017%=      5-min Rain = 0
KCO1 192203Z 13005KT 26/M01 A2982 RMK A01 T02631008  RH  017%=      5-min Rain = 0
KCO1 192204Z 12004KT 26/M01 A2982 RMK A01 T02631006  RH  017%=      5-min Rain = 0
KCO1 192205Z 13005KT 26/M00 A2982 RMK A01 T02631004  RH  017%=      5-min Rain = 0
KCO1 192206Z 13005KT 26/M00 A2982 RMK A01 T02621003  RH  018%=      5-min Rain = 0
KCO1 192207Z 13005KT 26/M00 A2982 RMK A01 T02631001  RH  018%=      5-min Rain = 0
KCO1 192208Z 12006KT 26/M00 A2982 RMK A01 T02631004  RH  017%=      5-min Rain = 0
KCO1 192209Z 12006KT 26/M00 A2982 RMK A01 T02631001  RH  018%=      5-min Rain = 0
KCO1 192210Z 12005KT 26/M00 A2982 RMK A01 T02631001  RH  018%=      5-min Rain = 0
KCO1 192211Z 12005KT 26/00 A2982 RMK A01 T026300-0  RH  018%=      5-min Rain = 0
KCO1 192212Z 12006KT 26/00 A2982 RMK A01 T02630003  RH  018%=      5-min Rain = 0
KCO1 192213Z 12006KT 26/00 A2982 RMK A01 T02620003  RH  018%=      5-min Rain = 0
KCO1 192214Z 12006KT 26/00 A2982 RMK A01 T02630003  RH  018%=      5-min Rain = 0
KCO1 192215Z 12006KT 26/00 A2982 RMK A01 T02620001  RH  018%=      5-min Rain = 0
KCO1 192216Z 13006KT 26/00 A2982 RMK A01 T02610003  RH  018%=      5-min Rain = 0
KCO1 192217Z 13006KT 26/00 A2982 RMK A01 T02600004  RH  019%=      5-min Rain = 0
KCO1 192218Z 13006KT 26/00 A2982 RMK A01 T02590003  RH  019%=      5-min Rain = 0
KCO1 192219Z 13006KT 26/00 A2982 RMK A01 T02580003  RH  019%=      5-min Rain = 0
KCO1 192220Z 13006KT 26/00 A2982 RMK A01 T02570003  RH  019%=      5-min Rain = 0
KCO1 192221Z 13006KT 26/00 A2982 RMK A01 T02560003  RH  019%=      5-min Rain = 0
KCO1 192222Z 12006KT 26/00 A2982 RMK A01 T02560003  RH  019%=      5-min Rain = 0
KCO1 192223Z 12006KT 26/00 A2982 RMK A01 T02550004  RH  019%=      5-min Rain = 0
KCO1 192224Z 13006KT 25/01 A2982 RMK A01 T02540005  RH  020%=      5-min Rain = 0
KCO1 192225Z 13006KT 25/01 A2982 RMK A01 T02530005  RH  020%=      5-min Rain = 0
KCO1 192226Z 12005KT 25/01 A2982 RMK A01 T02520005  RH  020%=      5-min Rain = 0
KCO1 192227Z 11005KT 25/01 A2982 RMK A01 T02510007  RH  020%=      5-min Rain = 0
KCO1 192228Z 11005KT 25/01 A2982 RMK A01 T02500007  RH  020%=      5-min Rain = 0
KCO1 192229Z 10004KT 25/01 A2982 RMK A01 T02490006  RH  020%=      5-min Rain = 0
KCO1 192230Z 10004KT 25/01 A2982 RMK A01 T02490007  RH  020%=      5-min Rain = 0
KCO1 192231Z 11004KT 25/01 A2982 RMK A01 T02480008  RH  021%=      5-min Rain = 0
KCO1 192232Z 10004KT 25/01 A2982 RMK A01 T02470009  RH  021%=      5-min Rain = 0
KCO1 192233Z 10004KT 25/01 A2982 RMK A01 T02460010  RH  021%=      5-min Rain = 0
KCO1 192234Z 10004KT 25/01 A2982 RMK A01 T02450010  RH  021%=      5-min Rain = 0
KCO1 192235Z 10004KT 25/01 A2982 RMK A01 T02450011  RH  022%=      5-min Rain = 0
KCO1 192236Z 09004KT 24/01 A2982 RMK A01 T02440012  RH  022%=      5-min Rain = 0
KCO1 192237Z 10004KT 24/01 A2982 RMK A01 T02430012  RH  022%=      5-min Rain = 0
KCO1 192238Z 09003KT 24/01 A2982 RMK A01 T02420011  RH  022%=      5-min Rain = 0
KCO1 192239Z 09003KT 24/01 A2982 RMK A01 T02420011  RH  022%=      5-min Rain = 0
KCO1 192240Z 09003KT 24/01 A2982 RMK A01 T02410013  RH  022%=      5-min Rain = 0
KCO1 192241Z 10003KT 24/01 A2982 RMK A01 T02400013  RH  022%=      5-min Rain = 0
KCO1 192242Z 09003KT 24/02 A2982 RMK A01 T02390015  RH  023%=      5-min Rain = 0
KCO1 192243Z 10003KT 24/02 A2982 RMK A01 T02380017  RH  023%=      5-min Rain = 0
KCO1 192244Z 09003KT 24/02 A2982 RMK A01 T02360018  RH  024%=      5-min Rain = 0
KCO1 192245Z 09004KT 24/02 A2982 RMK A01 T02350018  RH  024%=      5-min Rain = 0
KCO1 192246Z 09004KT 23/02 A2982 RMK A01 T02340019  RH  024%=      5-min Rain = 0
KCO1 192247Z 09004KT 23/02 A2982 RMK A01 T02330019  RH  024%=      5-min Rain = 0
KCO1 192248Z 10004KT 23/02 A2982 RMK A01 T02330018  RH  024%=      5-min Rain = 0
KCO1 192249Z 10005KT 23/02 A2982 RMK A01 T02320017  RH  024%=      5-min Rain = 0
KCO1 192250Z 10004KT 23/02 A2982 RMK A01 T02310016  RH  024%=      5-min Rain = 0
KCO1 192251Z 09004KT 23/02 A2982 RMK A01 T02310015  RH  024%=      5-min Rain = 0
KCO1 192252Z 09004KT 23/02 A2982 RMK A01 T02300015  RH  024%=      5-min Rain = 0
KCO1 192253Z 10004KT 23/02 A2982 RMK A01 T02310016  RH  024%=      5-min Rain = 0
KCO1 192254Z 09004KT 23/02 A2982 RMK A01 T02300018  RH  025%=      5-min Rain = 0
KCO1 192255Z 09004KT 23/02 A2982 RMK A01 T02290019  RH  025%=      5-min Rain = 0
KCO1 192256Z 08003KT 23/02 A2982 RMK A01 T02290019  RH  025%=      5-min Rain = 0
KCO1 192257Z 08003KT 23/02 A2982 RMK A01 T02280018  RH  025%=      5-min Rain = 0
KCO1 192258Z 08004KT 23/02 A2982 RMK A01 T02280017  RH  025%=      5-min Rain = 0
KCO1 192259Z 09003KT 23/02 A2982 RMK A01 T02280017  RH  025%=      5-min Rain = 0
KCO1 192300Z 09004KT 23/02 A2982 RMK A01 T02270017  RH  025%=      5-min Rain = 0
KCO1 192301Z 08004KT 23/02 A2982 RMK A01 T02270017  RH  025%=      5-min Rain = 0
KCO1 192302Z 09004KT 23/02 A2982 RMK A01 T02260017  RH  025%=      5-min Rain = 0
KCO1 192303Z 09004KT 23/02 A2982 RMK A01 T02260019  RH  026%=      5-min Rain = 0
KCO1 192304Z 09004KT 23/02 A2982 RMK A01 T02250020  RH  026%=      5-min Rain = 0
KCO1 192305Z 09004KT 23/02 A2982 RMK A01 T02250020  RH  026%=      5-min Rain = 0
KCO1 192306Z 09004KT 22/02 A2982 RMK A01 T02240021  RH  026%=      5-min Rain = 0
KCO1 192307Z 09004KT 22/02 A2982 RMK A01 T02240022  RH  026%=      5-min Rain = 0
KCO1 192308Z 09004KT 22/02 A2982 RMK A01 T02240021  RH  026%=      5-min Rain = 0
KCO1 192309Z 09004KT 22/02 A2982 RMK A01 T02240021  RH  026%=      5-min Rain = 0
KCO1 192310Z 09004KT 22/02 A2982 RMK A01 T02240021  RH  026%=      5-min Rain = 0
KCO1 192311Z 09004KT 22/02 A2982 RMK A01 T02240020  RH  026%=      5-min Rain = 0
KCO1 192312Z 09003KT 23/02 A2982 RMK A01 T02250021  RH  026%=      5-min Rain = 0
KCO1 192313Z 10003KT 23/02 A2982 RMK A01 T02260021  RH  026%=      5-min Rain = 0
KCO1 192314Z 12004KT 23/02 A2982 RMK A01 T02270019  RH  025%=      5-min Rain = 0
KCO1 192315Z 12004KT 23/02 A2982 RMK A01 T02290017  RH  025%=      5-min Rain = 0
KCO1 192316Z 12004KT 23/02 A2982 RMK A01 T02310019  RH  025%=      5-min Rain = 0
KCO1 192317Z 11005KT 23/02 A2982 RMK A01 T02320021  RH  025%=      5-min Rain = 0
KCO1 192318Z 11006KT 23/02 A2982 RMK A01 T02330020  RH  025%=      5-min Rain = 0
KCO1 192319Z 10006KT 23/02 A2982 RMK A01 T02340019  RH  024%=      5-min Rain = 0
KCO1 192320Z 10005KT 24/02 A2982 RMK A01 T02350016  RH  024%=      5-min Rain = 0
KCO1 192321Z 08004KT 24/02 A2982 RMK A01 T02350015  RH  024%=      5-min Rain = 0
KCO1 192322Z 08005KT 24/01 A2982 RMK A01 T02350014  RH  023%=      5-min Rain = 0
KCO1 192323Z 08005KT 24/01 A2982 RMK A01 T02350014  RH  023%=      5-min Rain = 0
KCO1 192324Z 07004KT 24/01 A2982 RMK A01 T02350013  RH  023%=      5-min Rain = 0
KCO1 192325Z 07004KT 24/01 A2982 RMK A01 T02350013  RH  023%=      5-min Rain = 0
KCO1 192326Z 08005KT 23/01 A2982 RMK A01 T02340014  RH  023%=      5-min Rain = 0
KCO1 192327Z 10005KT 23/02 A2982 RMK A01 T02330015  RH  024%=      5-min Rain = 0
KCO1 192328Z 08005KT 23/02 A2982 RMK A01 T02320016  RH  024%=      5-min Rain = 0
KCO1 192329Z 09005KT 23/02 A2982 RMK A01 T02310016  RH  024%=      5-min Rain = 0
KCO1 192330Z 10005KT 23/02 A2982 RMK A01 T02300017  RH  025%=      5-min Rain = 0
KCO1 192331Z 09005KT 23/02 A2982 RMK A01 T02290016  RH  025%=      5-min Rain = 0
KCO1 192332Z 08004KT 23/02 A2982 RMK A01 T02280016  RH  025%=      5-min Rain = 0
KCO1 192333Z 08004KT 23/02 A2982 RMK A01 T02280015  RH  025%=      5-min Rain = 0
KCO1 192334Z 08004KT 23/02 A2982 RMK A01 T02270016  RH  025%=      5-min Rain = 0
KCO1 192335Z 08004KT 23/02 A2982 RMK A01 T02260017  RH  025%=      5-min Rain = 0
KCO1 192336Z 08004KT 23/02 A2982 RMK A01 T02250018  RH  025%=      5-min Rain = 0
KCO1 192337Z 08004KT 22/02 A2982 RMK A01 T02230017  RH  026%=      5-min Rain = 0
KCO1 192338Z 08004KT 22/02 A2982 RMK A01 T02220017  RH  026%=      5-min Rain = 0
KCO1 192339Z 08004KT 22/02 A2982 RMK A01 T02200017  RH  026%=      5-min Rain = 0
KCO1 192340Z 08004KT 22/02 A2982 RMK A01 T02200017  RH  026%=      5-min Rain = 0
KCO1 192341Z 08004KT 22/02 A2982 RMK A01 T02180017  RH  026%=      5-min Rain = 0
KCO1 192342Z 07004KT 22/02 A2982 RMK A01 T02170018  RH  027%=      5-min Rain = 0
KCO1 192343Z 08004KT 22/02 A2982 RMK A01 T02170019  RH  027%=      5-min Rain = 0
KCO1 192344Z 08004KT 22/02 A2982 RMK A01 T02160020  RH  027%=      5-min Rain = 0
KCO1 192345Z 08004KT 21/02 A2982 RMK A01 T02140020  RH  028%=      5-min Rain = 0
KCO1 192346Z 08004KT 21/02 A2982 RMK A01 T02130020  RH  028%=      5-min Rain = 0
KCO1 192347Z 08004KT 21/02 A2982 RMK A01 T02120018  RH  028%=      5-min Rain = 0
KCO1 192348Z 08005KT 21/02 A2982 RMK A01 T02110018  RH  028%=      5-min Rain = 0
KCO1 192349Z 09005KT 21/02 A2982 RMK A01 T02100018  RH  028%=      5-min Rain = 0
KCO1 192350Z 09006KT 21/02 A2982 RMK A01 T02090018  RH  028%=      5-min Rain = 0
KCO1 192351Z 09006KT 21/02 A2982 RMK A01 T02080017  RH  028%=      5-min Rain = 0
KCO1 192352Z 09006KT 21/02 A2982 RMK A01 T02080018  RH  028%=      5-min Rain = 0
KCO1 192353Z 10007KT 21/02 A2982 RMK A01 T02070018  RH  028%=      5-min Rain = 0
KCO1 192354Z 10006KT 21/02 A2982 RMK A01 T02060017  RH  029%=      5-min Rain = 0
KCO1 192355Z 09006KT 21/02 A2982 RMK A01 T02060017  RH  029%=      5-min Rain = 0
KCO1 192356Z 09007KT 21/02 A2982 RMK A01 T02060017  RH  029%=      5-min Rain = 0
KCO1 192357Z 09006KT 21/02 A2982 RMK A01 T02050017  RH  029%=      5-min Rain = 0
KCO1 192358Z 10006KT 21/02 A2982 RMK A01 T02050017  RH  029%=      5-min Rain = 0
KCO1 192359Z 10006KT 20/02 A2982 RMK A01 T02040016  RH  029%=      5-min Rain = 0
KCO1 200000Z 10006KT 20/02 A2982 RMK A01 T02040016  RH  029%=      5-min Rain = 0
KCO1 200001Z 10006KT 20/02 A2982 RMK A01 T02030017  RH  029%=      5-min Rain = 0
KCO1 200002Z 10006KT 20/02 A2982 RMK A01 T02020017  RH  029%=      5-min Rain = 0
KCO1 200003Z 10006KT 20/02 A2982 RMK A01 T02010019  RH  030%=      5-min Rain = 0
KCO1 200004Z 10007KT 20/02 A2982 RMK A01 T02000020  RH  030%=      5-min Rain = 0
KCO1 200005Z 10007KT 20/02 A2982 RMK A01 T01980021  RH  031%=      5-min Rain = 0
KCO1 200006Z 10006KT 20/02 A2982 RMK A01 T01970022  RH  031%=      5-min Rain = 0
KCO1 200007Z 10006KT 20/02 A2982 RMK A01 T01950024  RH  032%=      5-min Rain = 0
KCO1 200008Z 10006KT 19/03 A2982 RMK A01 T01930025  RH  033%=      5-min Rain = 0
KCO1 200009Z 10006KT 19/03 A2982 RMK A01 T01910025  RH  033%=      5-min Rain = 0
KCO1 200010Z 10006KT 19/03 A2982 RMK A01 T01900025  RH  033%=      5-min Rain = 0
KCO1 200011Z 11006KT 19/03 A2982 RMK A01 T01890026  RH  034%=      5-min Rain = 0
KCO1 200012Z 11007KT 19/03 A2982 RMK A01 T01870025  RH  034%=      5-min Rain = 0
KCO1 200013Z 11006KT 19/03 A2982 RMK A01 T01860025  RH  034%=      5-min Rain = 0
KCO1 200014Z 11006KT 19/02 A2982 RMK A01 T01850024  RH  034%=      5-min Rain = 0
KCO1 200015Z 11006KT 19/02 A2982 RMK A01 T01850024  RH  034%=      5-min Rain = 0
KCO1 200016Z 11006KT 19/03 A2982 RMK A01 T01850025  RH  034%=      5-min Rain = 0
KCO1 200017Z 11007KT 18/03 A2982 RMK A01 T01840026  RH  035%=      5-min Rain = 0
KCO1 200018Z 11007KT 18/03 A2982 RMK A01 T01830027  RH  035%=      5-min Rain = 0
KCO1 200019Z 11007KT 18/03 A2982 RMK A01 T01820027  RH  036%=      5-min Rain = 0
KCO1 200020Z 11007KT 18/03 A2982 RMK A01 T01810028  RH  036%=      5-min Rain = 0
KCO1 200021Z 11007KT 18/03 A2982 RMK A01 T01800028  RH  036%=      5-min Rain = 0
KCO1 200022Z 11007KT 18/03 A2982 RMK A01 T01790028  RH  036%=      5-min Rain = 0
KCO1 200023Z 11007KT 18/03 A2982 RMK A01 T01780027  RH  036%=      5-min Rain = 0
KCO1 200024Z 12007KT 18/03 A2982 RMK A01 T01770027  RH  036%=      5-min Rain = 0
KCO1 200025Z 12007KT 18/03 A2982 RMK A01 T01770027  RH  037%=      5-min Rain = 0
KCO1 200026Z 12007KT 18/03 A2982 RMK A01 T01750026  RH  037%=      5-min Rain = 0
KCO1 200027Z 12007KT 18/03 A2983 RMK A01 T01750025  RH  037%=      5-min Rain = 0
KCO1 200028Z 12008KT 17/02 A2983 RMK A01 T01740024  RH  036%=      5-min Rain = 0
KCO1 200029Z 12007KT 17/02 A2983 RMK A01 T01740024  RH  037%=      5-min Rain = 0
KCO1 200030Z 12008KT 17/02 A2983 RMK A01 T01740023  RH  036%=      5-min Rain = 0
KCO1 200031Z 12008KT 17/02 A2983 RMK A01 T01740023  RH  036%=      5-min Rain = 0
KCO1 200032Z 12008KT 17/02 A2983 RMK A01 T01740022  RH  036%=      5-min Rain = 0
KCO1 200033Z 12008KT 17/02 A2983 RMK A01 T01740022  RH  036%=      5-min Rain = 0
KCO1 200034Z 12008KT 17/02 A2983 RMK A01 T01740022  RH  036%=      5-min Rain = 0
KCO1 200035Z 12008KT 17/02 A2983 RMK A01 T01740022  RH  036%=      5-min Rain = 0
KCO1 200036Z 12007KT 17/02 A2983 RMK A01 T01740022  RH  036%=      5-min Rain = 0
KCO1 200037Z 12007KT 17/02 A2983 RMK A01 T01740021  RH  036%=      5-min Rain = 0
KCO1 200038Z 12007KT 17/02 A2983 RMK A01 T01740021  RH  036%=      5-min Rain = 0
KCO1 200039Z 12007KT 17/02 A2983 RMK A01 T01740020  RH  036%=      5-min Rain = 0
KCO1 200040Z 13007KT 17/02 A2983 RMK A01 T01730020  RH  036%=      5-min Rain = 0
KCO1 200041Z 13007KT 17/02 A2983 RMK A01 T01730020  RH  036%=      5-min Rain = 0
KCO1 200042Z 13006KT 17/02 A2983 RMK A01 T01730020  RH  036%=      5-min Rain = 0
KCO1 200043Z 13006KT 17/02 A2983 RMK A01 T01720021  RH  036%=      5-min Rain = 0
KCO1 200044Z 12006KT 17/02 A2983 RMK A01 T01720022  RH  037%=      5-min Rain = 0
KCO1 200045Z 12007KT 17/02 A2982 RMK A01 T01710022  RH  037%=      5-min Rain = 0
KCO1 200046Z 12007KT 17/02 A2982 RMK A01 T01700021  RH  037%=      5-min Rain = 0
KCO1 200047Z 12007KT 17/02 A2982 RMK A01 T01700022  RH  037%=      5-min Rain = 0
KCO1 200048Z 12007KT 17/02 A2982 RMK A01 T01690021  RH  037%=      5-min Rain = 0
KCO1 200049Z 12007KT 17/02 A2982 RMK A01 T01690022  RH  037%=      5-min Rain = 0
KCO1 200050Z 12007KT 17/02 A2982 RMK A01 T01680021  RH  037%=      5-min Rain = 0
KCO1 200051Z 13007KT 17/02 A2982 RMK A01 T01680022  RH  037%=      5-min Rain = 0
KCO1 200052Z 13007KT 17/02 A2982 RMK A01 T01680022  RH  037%=      5-min Rain = 0
KCO1 200053Z 13007KT 17/02 A2982 RMK A01 T01670022  RH  038%=      5-min Rain = 0
KCO1 200054Z 13007KT 17/02 A2982 RMK A01 T01670022  RH  038%=      5-min Rain = 0
KCO1 200055Z 13007KT 17/02 A2982 RMK A01 T01660022  RH  038%=      5-min Rain = 0
KCO1 200056Z 13008KT 17/02 A2982 RMK A01 T01660021  RH  038%=      5-min Rain = 0
KCO1 200057Z 13007KT 17/02 A2982 RMK A01 T01660021  RH  038%=      5-min Rain = 0
KCO1 200058Z 12009KT 17/02 A2982 RMK A01 T01660021  RH  038%=      5-min Rain = 0
KCO1 200059Z 12009KT 17/02 A2982 RMK A01 T01670021  RH  037%=      5-min Rain = 0
KCO1 200100Z 12008KT 17/02 A2982 RMK A01 T01670020  RH  037%=      5-min Rain = 0
KCO1 200101Z 12008KT 17/02 A2982 RMK A01 T01690018  RH  036%=      5-min Rain = 0
KCO1 200102Z 12007KT 17/02 A2982 RMK A01 T01720016  RH  035%=      5-min Rain = 0
KCO1 200103Z 12007KT 18/01 A2982 RMK A01 T01760014  RH  034%=      5-min Rain = 0
KCO1 200104Z 12007KT 18/01 A2982 RMK A01 T01810014  RH  032%=      5-min Rain = 0
KCO1 200105Z 11007KT 18/01 A2982 RMK A01 T01840012  RH  032%=      5-min Rain = 0
KCO1 200106Z 11007KT 19/01 A2982 RMK A01 T01870011  RH  031%=      5-min Rain = 0
KCO1 200107Z 11007KT 19/01 A2982 RMK A01 T01900011  RH  030%=      5-min Rain = 0
KCO1 200108Z 11007KT 19/01 A2982 RMK A01 T01920010  RH  030%=      5-min Rain = 0
KCO1 200109Z 11007KT 19/01 A2982 RMK A01 T01930011  RH  030%=      5-min Rain = 0
KCO1 200110Z 11007KT 19/01 A2982 RMK A01 T01930011  RH  030%=      5-min Rain = 0
KCO1 200111Z 12007KT 19/01 A2982 RMK A01 T01920012  RH  030%=      5-min Rain = 0
KCO1 200112Z 12008KT 19/01 A2982 RMK A01 T01920013  RH  030%=      5-min Rain = 0
KCO1 200113Z 12009KT 19/01 A2982 RMK A01 T01910014  RH  031%=      5-min Rain = 0
KCO1 200114Z 12008KT 19/02 A2982 RMK A01 T01910016  RH  031%=      5-min Rain = 0
KCO1 200115Z 13009KT 19/02 A2982 RMK A01 T01910018  RH  032%=      5-min Rain = 0
KCO1 200116Z 13009KT 19/02 A2982 RMK A01 T01910020  RH  032%=      5-min Rain = 0
KCO1 200117Z 13009KT 19/02 A2982 RMK A01 T01910022  RH  033%=      5-min Rain = 0
KCO1 200118Z 13009KT 19/03 A2982 RMK A01 T01900025  RH  033%=      5-min Rain = 0
KCO1 200119Z 13009KT 19/03 A2982 RMK A01 T01910028  RH  034%=      5-min Rain = 0
KCO1 200120Z 13010KT 19/03 A2982 RMK A01 T01930033  RH  035%=      5-min Rain = 0
KCO1 200121Z 13010KT 20/04 A2982 RMK A01 T01950038  RH  035%=      5-min Rain = 0
KCO1 200122Z 13011KT 20/04 A2982 RMK A01 T01970041  RH  036%=      5-min Rain = 0
KCO1 200123Z 13011KT 20/04 A2982 RMK A01 T01980044  RH  036%=      5-min Rain = 0
KCO1 200124Z 13011KT 20/05 A2982 RMK A01 T02000045  RH  036%=      5-min Rain = 0
KCO1 200125Z 13011KT 20/05 A2982 RMK A01 T02010046  RH  036%=      5-min Rain = 0
KCO1 200126Z 13010KT 20/05 A2982 RMK A01 T02020046  RH  036%=      5-min Rain = 0
KCO1 200127Z 13011KT 20/05 A2982 RMK A01 T02020047  RH  036%=      5-min Rain = 0
KCO1 200128Z 13011KT 20/05 A2982 RMK A01 T02020047  RH  036%=      5-min Rain = 0
KCO1 200129Z 13011KT 20/05 A2982 RMK A01 T02020048  RH  036%=      5-min Rain = 0
KCO1 200130Z 13011KT 20/05 A2982 RMK A01 T02020048  RH  036%=      5-min Rain = 0
KCO1 200131Z 13010KT 20/05 A2982 RMK A01 T02010048  RH  036%=      5-min Rain = 0
KCO1 200132Z 13010KT 20/05 A2982 RMK A01 T02000048  RH  037%=      5-min Rain = 0
KCO1 200133Z 12009KT 20/05 A2982 RMK A01 T02000048  RH  037%=      5-min Rain = 0
KCO1 200134Z 13009KT 20/05 A2982 RMK A01 T01990048  RH  037%=      5-min Rain = 0
KCO1 200135Z 12010KT 20/05 A2982 RMK A01 T01980049  RH  037%=      5-min Rain = 0
KCO1 200136Z 13010KT 20/05 A2982 RMK A01 T01970049  RH  038%=      5-min Rain = 0
KCO1 200137Z 13010KT 20/05 A2982 RMK A01 T01960050  RH  038%=      5-min Rain = 0
KCO1 200138Z 13009KT 20/05 A2982 RMK A01 T01960050  RH  038%=      5-min Rain = 0
KCO1 200139Z 13008KT 20/05 A2982 RMK A01 T01950050  RH  038%=      5-min Rain = 0
KCO1 200140Z 13008KT 20/05 A2983 RMK A01 T01950050  RH  039%=      5-min Rain = 0
KCO1 200141Z 13009KT 19/05 A2983 RMK A01 T01940051  RH  039%=      5-min Rain = 0
KCO1 200142Z 12010KT 19/05 A2983 RMK A01 T01930051  RH  039%=      5-min Rain = 0
KCO1 200143Z 12010KT 19/05 A2983 RMK A01 T01920052  RH  040%=      5-min Rain = 0
KCO1 200144Z 13010KT 19/05 A2983 RMK A01 T01910052  RH  040%=      5-min Rain = 0
KCO1 200145Z 13011KT 19/05 A2983 RMK A01 T01910052  RH  040%=      5-min Rain = 0
KCO1 200146Z 13011KT 19/05 A2983 RMK A01 T01900052  RH  040%=      5-min Rain = 0
KCO1 200147Z 13012KT 19/05 A2983 RMK A01 T01900053  RH  040%=      5-min Rain = 0
KCO1 200148Z 13013KT 19/05 A2983 RMK A01 T01900053  RH  041%=      5-min Rain = 0
KCO1 200149Z 13012KT 19/05 A2983 RMK A01 T01900054  RH  041%=      5-min Rain = 0
KCO1 200150Z 13011KT 19/05 A2983 RMK A01 T01900054  RH  041%=      5-min Rain = 0
KCO1 200151Z 13012KT 19/05 A2983 RMK A01 T01900054  RH  041%=      5-min Rain = 0
KCO1 200152Z 13011KT 19/05 A2983 RMK A01 T01900054  RH  041%=      5-min Rain = 0
KCO1 200153Z 13011KT 19/05 A2983 RMK A01 T01900054  RH  041%=      5-min Rain = 0
KCO1 200154Z 13009KT 19/05 A2983 RMK A01 T01900053  RH  041%=      5-min Rain = 0
KCO1 200155Z 12009KT 19/05 A2983 RMK A01 T01890053  RH  041%=      5-min Rain = 0
KCO1 200156Z 13009KT 19/05 A2983 RMK A01 T01880053  RH  041%=      5-min Rain = 0
KCO1 200157Z 13009KT 19/05 A2983 RMK A01 T01870054  RH  042%=      5-min Rain = 0
KCO1 200158Z 12010KT 19/05 A2983 RMK A01 T01860054  RH  042%=      5-min Rain = 0
KCO1 200159Z 13010KT 19/06 A2983 RMK A01 T01850055  RH  042%=      5-min Rain = 0
KCO1 200200Z 12011KT 18/06 A2983 RMK A01 T01840055  RH  043%=      5-min Rain = 0
KCO1 200201Z 12011KT 18/06 A2983 RMK A01 T01840056  RH  043%=      5-min Rain = 0
KCO1 200202Z 12011KT 18/06 A2983 RMK A01 T01840056  RH  043%=      5-min Rain = 0
KCO1 200203Z 12010KT 19/06 A2983 RMK A01 T01850056  RH  043%=      5-min Rain = 0
KCO1 200204Z 13010KT 19/06 A2983 RMK A01 T01850056  RH  043%=      5-min Rain = 0
KCO1 200205Z 12009KT 19/06 A2983 RMK A01 T01850056  RH  043%=      5-min Rain = 0
KCO1 200206Z 12011KT 18/06 A2983 RMK A01 T01840057  RH  043%=      5-min Rain = 0
KCO1 200207Z 13010KT 18/06 A2983 RMK A01 T01830057  RH  044%=      5-min Rain = 0
KCO1 200208Z 13009KT 18/06 A2983 RMK A01 T01830058  RH  044%=      5-min Rain = 0
KCO1 200209Z 13010KT 18/06 A2983 RMK A01 T01830057  RH  044%=      5-min Rain = 0
KCO1 200210Z 13009KT 18/06 A2983 RMK A01 T01830058  RH  044%=      5-min Rain = 0
KCO1 200211Z 13010KT 18/06 A2983 RMK A01 T01820058  RH  044%=      5-min Rain = 0
KCO1 200212Z 13010KT 18/06 A2983 RMK A01 T01820058  RH  044%=      5-min Rain = 0
KCO1 200213Z 13010KT 18/06 A2983 RMK A01 T01820058  RH  044%=      5-min Rain = 0
KCO1 200214Z 13009KT 18/06 A2983 RMK A01 T01820058  RH  044%=      5-min Rain = 0
KCO1 200215Z 13010KT 18/06 A2983 RMK A01 T01810058  RH  044%=      5-min Rain = 0
KCO1 200216Z 13009KT 18/06 A2983 RMK A01 T01800058  RH  045%=      5-min Rain = 0
KCO1 200217Z 13009KT 18/06 A2983 RMK A01 T01790058  RH  045%=      5-min Rain = 0
KCO1 200218Z 13009KT 18/06 A2983 RMK A01 T01790058  RH  045%=      5-min Rain = 0
KCO1 200219Z 13008KT 18/06 A2983 RMK A01 T01780058  RH  045%=      5-min Rain = 0
KCO1 200220Z 13009KT 18/06 A2983 RMK A01 T01780058  RH  045%=      5-min Rain = 0
KCO1 200221Z 13008KT 18/06 A2983 RMK A01 T01770058  RH  046%=      5-min Rain = 0
KCO1 200222Z 13008KT 18/06 A2983 RMK A01 T01760058  RH  046%=      5-min Rain = 0
KCO1 200223Z 13009KT 18/06 A2984 RMK A01 T01750057  RH  046%=      5-min Rain = 0
KCO1 200224Z 13009KT 18/06 A2984 RMK A01 T01750058  RH  046%=      5-min Rain = 0
KCO1 200225Z 13009KT 18/06 A2984 RMK A01 T01750058  RH  046%=      5-min Rain = 0
KCO1 200226Z 13009KT 17/06 A2984 RMK A01 T01740057  RH  046%=      5-min Rain = 0
KCO1 200227Z 13009KT 17/06 A2984 RMK A01 T01740058  RH  046%=      5-min Rain = 0
KCO1 200228Z 13009KT 17/06 A2984 RMK A01 T01730057  RH  046%=      5-min Rain = 0
KCO1 200229Z 13009KT 17/06 A2984 RMK A01 T01730057  RH  046%=      5-min Rain = 0
KCO1 200230Z 13009KT 17/06 A2984 RMK A01 T01740058  RH  046%=      5-min Rain = 0
KCO1 200231Z 13009KT 17/06 A2984 RMK A01 T01740058  RH  046%=      5-min Rain = 0
KCO1 200232Z 13009KT 17/06 A2984 RMK A01 T01740058  RH  046%=      5-min Rain = 0
KCO1 200233Z 13009KT 17/06 A2984 RMK A01 T01740058  RH  047%=      5-min Rain = 0
KCO1 200234Z 13009KT 17/06 A2984 RMK A01 T01740058  RH  047%=      5-min Rain = 0
KCO1 200235Z 13009KT 17/06 A2984 RMK A01 T01740058  RH  047%=      5-min Rain = 0
KCO1 200236Z 13009KT 17/06 A2984 RMK A01 T01740058  RH  047%=      5-min Rain = 0
KCO1 200237Z 13009KT 17/06 A2984 RMK A01 T01740059  RH  047%=      5-min Rain = 0
KCO1 200238Z 13009KT 17/06 A2984 RMK A01 T01730059  RH  047%=      5-min Rain = 0
KCO1 200239Z 13008KT 17/06 A2984 RMK A01 T01730059  RH  047%=      5-min Rain = 0
KCO1 200240Z 12008KT 17/06 A2984 RMK A01 T01720059  RH  047%=      5-min Rain = 0
KCO1 200241Z 12009KT 17/06 A2984 RMK A01 T01720059  RH  047%=      5-min Rain = 0
KCO1 200242Z 12009KT 17/06 A2984 RMK A01 T01710059  RH  048%=      5-min Rain = 0
KCO1 200243Z 13009KT 17/06 A2984 RMK A01 T01710059  RH  048%=      5-min Rain = 0
KCO1 200244Z 13009KT 17/06 A2984 RMK A01 T01700059  RH  048%=      5-min Rain = 0
KCO1 200245Z 13009KT 17/06 A2984 RMK A01 T01700059  RH  048%=      5-min Rain = 0
KCO1 200246Z 13009KT 17/06 A2984 RMK A01 T01690059  RH  048%=      5-min Rain = 0
KCO1 200247Z 13010KT 17/06 A2984 RMK A01 T01690059  RH  048%=      5-min Rain = 0
KCO1 200248Z 13009KT 17/06 A2984 RMK A01 T01690059  RH  048%=      5-min Rain = 0
KCO1 200249Z 13009KT 17/06 A2984 RMK A01 T01690058  RH  048%=      5-min Rain = 0
KCO1 200250Z 13010KT 17/06 A2984 RMK A01 T01690058  RH  048%=      5-min Rain = 0
KCO1 200251Z 13010KT 17/06 A2984 RMK A01 T01690058  RH  048%=      5-min Rain = 0
KCO1 200252Z 13010KT 17/06 A2984 RMK A01 T01690057  RH  048%=      5-min Rain = 0
KCO1 200253Z 13009KT 17/06 A2984 RMK A01 T01690057  RH  048%=      5-min Rain = 0
KCO1 200254Z 13010KT 17/06 A2984 RMK A01 T01690056  RH  047%=      5-min Rain = 0
KCO1 200255Z 13010KT 17/06 A2984 RMK A01 T01690056  RH  047%=      5-min Rain = 0
KCO1 200256Z 14011KT 17/06 A2984 RMK A01 T01680055  RH  047%=      5-min Rain = 0
KCO1 200257Z 13010KT 17/05 A2984 RMK A01 T01680054  RH  047%=      5-min Rain = 0
KCO1 200258Z 13009KT 17/05 A2984 RMK A01 T01680054  RH  047%=      5-min Rain = 0
KCO1 200259Z 13009KT 17/05 A2984 RMK A01 T01680053  RH  047%=      5-min Rain = 0
KCO1 200300Z 13010KT 17/05 A2984 RMK A01 T01680053  RH  046%=      5-min Rain = 0
KCO1 200301Z 13010KT 17/05 A2984 RMK A01 T01680053  RH  046%=      5-min Rain = 0
KCO1 200302Z 14009KT 17/05 A2984 RMK A01 T01680053  RH  046%=      5-min Rain = 0
KCO1 200303Z 14010KT 17/05 A2984 RMK A01 T01670053  RH  047%=      5-min Rain = 0
KCO1 200304Z 14011KT 17/05 A2984 RMK A01 T01670052  RH  047%=      5-min Rain = 0
KCO1 200305Z 14011KT 17/05 A2984 RMK A01 T01670052  RH  046%=      5-min Rain = 0
KCO1 200306Z 14010KT 17/05 A2984 RMK A01 T01690052  RH  046%=      5-min Rain = 0
KCO1 200307Z 14010KT 17/05 A2984 RMK A01 T01700052  RH  046%=      5-min Rain = 0
KCO1 200308Z 15009KT 17/05 A2984 RMK A01 T01710051  RH  045%=      5-min Rain = 0
KCO1 200309Z 14009KT 17/05 A2984 RMK A01 T01710051  RH  045%=      5-min Rain = 0
KCO1 200310Z 14009KT 17/05 A2984 RMK A01 T01710051  RH  045%=      5-min Rain = 0
KCO1 200311Z 14008KT 17/05 A2984 RMK A01 T01720051  RH  045%=      5-min Rain = 0
KCO1 200312Z 14009KT 17/05 A2984 RMK A01 T01710052  RH  045%=      5-min Rain = 0
KCO1 200313Z 14009KT 17/05 A2984 RMK A01 T01700052  RH  046%=      5-min Rain = 0
KCO1 200314Z 14009KT 17/05 A2984 RMK A01 T01690052  RH  046%=      5-min Rain = 0
KCO1 200315Z 14008KT 17/05 A2984 RMK A01 T01680052  RH  046%=      5-min Rain = 0
KCO1 200316Z 14008KT 17/05 A2984 RMK A01 T01670052  RH  047%=      5-min Rain = 0
KCO1 200317Z 14008KT 17/05 A2984 RMK A01 T01650052  RH  047%=      5-min Rain = 0
KCO1 200318Z 14008KT 16/05 A2984 RMK A01 T01640052  RH  047%=      5-min Rain = 0
KCO1 200319Z 14008KT 16/05 A2984 RMK A01 T01640052  RH  048%=      5-min Rain = 0
KCO1 200320Z 14007KT 16/05 A2984 RMK A01 T01640053  RH  048%=      5-min Rain = 0
KCO1 200321Z 14006KT 16/05 A2985 RMK A01 T01640053  RH  048%=      5-min Rain = 0
KCO1 200322Z 14006KT 16/05 A2985 RMK A01 T01640053  RH  048%=      5-min Rain = 0
KCO1 200323Z 14006KT 16/05 A2985 RMK A01 T01630053  RH  048%=      5-min Rain = 0
KCO1 200324Z 14006KT 16/05 A2985 RMK A01 T01640054  RH  048%=      5-min Rain = 0
KCO1 200325Z 14006KT 16/05 A2985 RMK A01 T01630054  RH  048%=      5-min Rain = 0
KCO1 200326Z 14007KT 16/06 A2985 RMK A01 T01630055  RH  049%=      5-min Rain = 0
KCO1 200327Z 14007KT 16/06 A2985 RMK A01 T01630055  RH  049%=      5-min Rain = 0
KCO1 200328Z 14006KT 16/06 A2985 RMK A01 T01630055  RH  049%=      5-min Rain = 0
KCO1 200329Z 14006KT 16/06 A2985 RMK A01 T01620055  RH  049%=      5-min Rain = 0
KCO1 200330Z 14007KT 16/06 A2985 RMK A01 T01620056  RH  049%=      5-min Rain = 0
KCO1 200331Z 14007KT 16/06 A2985 RMK A01 T01620055  RH  049%=      5-min Rain = 0
KCO1 200332Z 14008KT 16/06 A2985 RMK A01 T01620055  RH  049%=      5-min Rain = 0
KCO1 200333Z 14009KT 16/06 A2985 RMK A01 T01620055  RH  049%=      5-min Rain = 0
KCO1 200334Z 14008KT 16/06 A2985 RMK A01 T01620055  RH  049%=      5-min Rain = 0
KCO1 200335Z 14008KT 16/05 A2985 RMK A01 T01630054  RH  049%=      5-min Rain = 0
KCO1 200336Z 14009KT 16/06 A2985 RMK A01 T01630055  RH  048%=      5-min Rain = 0
KCO1 200337Z 14008KT 16/05 A2985 RMK A01 T01630054  RH  048%=      5-min Rain = 0
KCO1 200338Z 14009KT 16/05 A2985 RMK A01 T01630054  RH  048%=      5-min Rain = 0
KCO1 200339Z 14008KT 16/05 A2985 RMK A01 T01630054  RH  048%=      5-min Rain = 0
KCO1 200340Z 14008KT 16/05 A2985 RMK A01 T01630054  RH  048%=      5-min Rain = 0
KCO1 200341Z 15009KT 16/05 A2985 RMK A01 T01620053  RH  048%=      5-min Rain = 0
KCO1 200342Z 14009KT 16/05 A2985 RMK A01 T01620053  RH  048%=      5-min Rain = 0
KCO1 200343Z 14009KT 16/05 A2985 RMK A01 T01620053  RH  048%=      5-min Rain = 0
KCO1 200344Z 14008KT 16/05 A2985 RMK A01 T01620053  RH  048%=      5-min Rain = 0
KCO1 200345Z 15009KT 16/05 A2985 RMK A01 T01620053  RH  048%=      5-min Rain = 0
KCO1 200346Z 15009KT 16/05 A2985 RMK A01 T01620053  RH  048%=      5-min Rain = 0
KCO1 200347Z 14010KT 16/05 A2985 RMK A01 T01620053  RH  049%=      5-min Rain = 0
KCO1 200348Z 15010KT 16/05 A2985 RMK A01 T01610053  RH  049%=      5-min Rain = 0
KCO1 200349Z 14009KT 16/05 A2985 RMK A01 T01610054  RH  049%=      5-min Rain = 0
KCO1 200350Z 15009KT 16/05 A2985 RMK A01 T01620054  RH  049%=      5-min Rain = 0
KCO1 200351Z 15009KT 16/05 A2985 RMK A01 T01620054  RH  049%=      5-min Rain = 0
KCO1 200352Z 15009KT 16/06 A2985 RMK A01 T01630055  RH  049%=      5-min Rain = 0
KCO1 200353Z 15009KT 16/05 A2985 RMK A01 T01630054  RH  049%=      5-min Rain = 0
KCO1 200354Z 15009KT 16/06 A2986 RMK A01 T01630055  RH  049%=      5-min Rain = 0
KCO1 200355Z 15010KT 16/06 A2986 RMK A01 T01620056  RH  049%=      5-min Rain = 0
KCO1 200356Z 15009KT 16/06 A2986 RMK A01 T01630057  RH  049%=      5-min Rain = 0
KCO1 200357Z 15008KT 16/06 A2986 RMK A01 T01640059  RH  050%=      5-min Rain = 0
KCO1 200358Z 15008KT 17/06 A2986 RMK A01 T01650060  RH  050%=      5-min Rain = 0
KCO1 200359Z 15009KT 17/06 A2986 RMK A01 T01670061  RH  050%=      5-min Rain = 0
KCO1 200400Z 15009KT 17/06 A2986 RMK A01 T01690062  RH  049%=      5-min Rain = 0
KCO1 200401Z 15010KT 17/06 A2986 RMK A01 T01700062  RH  049%=      5-min Rain = 0
KCO1 200402Z 15010KT 17/06 A2986 RMK A01 T01710063  RH  049%=      5-min Rain = 0
KCO1 200403Z 15010KT 17/06 A2986 RMK A01 T01720063  RH  049%=      5-min Rain = 0
KCO1 200404Z 15009KT 17/06 A2986 RMK A01 T01730063  RH  049%=      5-min Rain = 0
KCO1 200405Z 15008KT 17/06 A2986 RMK A01 T01730064  RH  049%=      5-min Rain = 0
KCO1 200406Z 14009KT 17/06 A2986 RMK A01 T01730064  RH  049%=      5-min Rain = 0
KCO1 200407Z 14008KT 17/06 A2986 RMK A01 T01730064  RH  049%=      5-min Rain = 0
KCO1 200408Z 14008KT 17/06 A2986 RMK A01 T01730064  RH  049%=      5-min Rain = 0
KCO1 200409Z 14008KT 17/06 A2986 RMK A01 T01740064  RH  049%=      5-min Rain = 0
KCO1 200410Z 14008KT 17/06 A2986 RMK A01 T01740064  RH  049%=      5-min Rain = 0
KCO1 200411Z 14008KT 17/06 A2986 RMK A01 T01740064  RH  049%=      5-min Rain = 0
KCO1 200412Z 14009KT 17/07 A2986 RMK A01 T01740065  RH  049%=      5-min Rain = 0
KCO1 200413Z 14009KT 17/07 A2986 RMK A01 T01740065  RH  049%=      5-min Rain = 0
KCO1 200414Z 14008KT 17/07 A2986 RMK A01 T01740065  RH  049%=      5-min Rain = 0
KCO1 200415Z 14008KT 17/07 A2986 RMK A01 T01740065  RH  049%=      5-min Rain = 0
KCO1 200416Z 14008KT 17/07 A2986 RMK A01 T01740065  RH  049%=      5-min Rain = 0
KCO1 200417Z 14009KT 17/07 A2986 RMK A01 T01740065  RH  049%=      5-min Rain = 0
KCO1 200418Z 14008KT 17/07 A2986 RMK A01 T01740066  RH  049%=      5-min Rain = 0
KCO1 200419Z 14009KT 17/07 A2986 RMK A01 T01740066  RH  049%=      5-min Rain = 0
KCO1 200420Z 13008KT 17/07 A2986 RMK A01 T01740066  RH  049%=      5-min Rain = 0
KCO1 200421Z 14007KT 17/07 A2986 RMK A01 T01730067  RH  049%=      5-min Rain = 0
KCO1 200422Z 14008KT 17/07 A2986 RMK A01 T01730067  RH  050%=      5-min Rain = 0
KCO1 200423Z 14007KT 17/07 A2986 RMK A01 T01720067  RH  050%=      5-min Rain = 0
KCO1 200424Z 14008KT 17/07 A2986 RMK A01 T01730068  RH  050%=      5-min Rain = 0
KCO1 200425Z 14008KT 17/07 A2986 RMK A01 T01720067  RH  050%=      5-min Rain = 0
KCO1 200426Z 14009KT 17/07 A2986 RMK A01 T01720068  RH  050%=      5-min Rain = 0
KCO1 200427Z 14009KT 17/07 A2986 RMK A01 T01730068  RH  050%=      5-min Rain = 0
KCO1 200428Z 14009KT 17/07 A2986 RMK A01 T01720068  RH  050%=      5-min Rain = 0
KCO1 200429Z 14009KT 17/07 A2986 RMK A01 T01720068  RH  050%=      5-min Rain = 0
KCO1 200430Z 14008KT 17/07 A2986 RMK A01 T01730068  RH  050%=      5-min Rain = 0
KCO1 200431Z 14008KT 17/07 A2986 RMK A01 T01730068  RH  050%=      5-min Rain = 0
KCO1 200432Z 14008KT 17/07 A2986 RMK A01 T01720068  RH  051%=      5-min Rain = 0
KCO1 200433Z 14009KT 17/07 A2986 RMK A01 T01720069  RH  051%=      5-min Rain = 0
KCO1 200434Z 15009KT 17/07 A2986 RMK A01 T01710069  RH  051%=      5-min Rain = 0
KCO1 200435Z 14009KT 17/07 A2986 RMK A01 T01710069  RH  051%=      5-min Rain = 0
KCO1 200436Z 14008KT 17/07 A2986 RMK A01 T01720069  RH  051%=      5-min Rain = 0
KCO1 200437Z 14008KT 17/07 A2986 RMK A01 T01720069  RH  051%=      5-min Rain = 0
KCO1 200438Z 14009KT 17/07 A2985 RMK A01 T01720070  RH  051%=      5-min Rain = 0
KCO1 200439Z 14009KT 17/07 A2985 RMK A01 T01720070  RH  051%=      5-min Rain = 0
KCO1 200440Z 14009KT 17/07 A2985 RMK A01 T01730071  RH  051%=      5-min Rain = 0
KCO1 200441Z 14008KT 17/07 A2985 RMK A01 T01730071  RH  051%=      5-min Rain = 0
KCO1 200442Z 14009KT 17/07 A2985 RMK A01 T01730071  RH  051%=      5-min Rain = 0
KCO1 200443Z 14008KT 17/07 A2985 RMK A01 T01730071  RH  051%=      5-min Rain = 0
KCO1 200444Z 14009KT 17/07 A2985 RMK A01 T01730071  RH  051%=      5-min Rain = 0
KCO1 200445Z 14009KT 17/07 A2985 RMK A01 T01730072  RH  051%=      5-min Rain = 0
KCO1 200446Z 14008KT 17/07 A2985 RMK A01 T01720072  RH  052%=      5-min Rain = 0
KCO1 200447Z 14008KT 17/07 A2985 RMK A01 T01720073  RH  052%=      5-min Rain = 0
KCO1 200448Z 14009KT 17/07 A2985 RMK A01 T01720073  RH  052%=      5-min Rain = 0
KCO1 200449Z 14008KT 17/07 A2985 RMK A01 T01720073  RH  052%=      5-min Rain = 0
KCO1 200450Z 14009KT 17/07 A2985 RMK A01 T01720074  RH  052%=      5-min Rain = 0
KCO1 200451Z 15009KT 17/07 A2986 RMK A01 T01720073  RH  052%=      5-min Rain = 0
KCO1 200452Z 15010KT 17/07 A2986 RMK A01 T01720073  RH  052%=      5-min Rain = 0
KCO1 200453Z 15010KT 17/07 A2986 RMK A01 T01730073  RH  052%=      5-min Rain = 0
KCO1 200454Z 15009KT 17/07 A2986 RMK A01 T01730072  RH  052%=      5-min Rain = 0
KCO1 200455Z 14009KT 17/07 A2986 RMK A01 T01740073  RH  051%=      5-min Rain = 0
KCO1 200456Z 14009KT 18/07 A2986 RMK A01 T01750073  RH  051%=      5-min Rain = 0
KCO1 200457Z 14008KT 18/07 A2986 RMK A01 T01750073  RH  051%=      5-min Rain = 0
KCO1 200458Z 14008KT 18/07 A2986 RMK A01 T01750073  RH  051%=      5-min Rain = 0
KCO1 200459Z 13008KT 18/07 A2986 RMK A01 T01760074  RH  051%=      5-min Rain = 0
KCO1 200500Z 13008KT 18/08 A2986 RMK A01 T01760075  RH  052%=      5-min Rain = 0
KCO1 200501Z 13007KT 18/08 A2985 RMK A01 T01760076  RH  052%=      5-min Rain = 0
KCO1 200502Z 13008KT 18/08 A2985 RMK A01 T01760077  RH  052%=      5-min Rain = 0
KCO1 200503Z 13007KT 18/08 A2985 RMK A01 T01750077  RH  053%=      5-min Rain = 0
KCO1 200504Z 13008KT 18/08 A2985 RMK A01 T01750078  RH  053%=      5-min Rain = 0
KCO1 200505Z 13008KT 17/08 A2985 RMK A01 T01740078  RH  053%=      5-min Rain = 0
KCO1 200506Z 13007KT 17/08 A2985 RMK A01 T01730078  RH  054%=      5-min Rain = 0
KCO1 200507Z 13008KT 17/08 A2985 RMK A01 T01730079  RH  054%=      5-min Rain = 0
KCO1 200508Z 13008KT 17/08 A2985 RMK A01 T01730079  RH  054%=      5-min Rain = 0
KCO1 200509Z 13008KT 17/08 A2985 RMK A01 T01720079  RH  054%=      5-min Rain = 0
KCO1 200510Z 13008KT 17/08 A2985 RMK A01 T01730080  RH  054%=      5-min Rain = 0
KCO1 200511Z 14008KT 17/08 A2986 RMK A01 T01720079  RH  054%=      5-min Rain = 0
KCO1 200512Z 14008KT 17/08 A2986 RMK A01 T01720079  RH  054%=      5-min Rain = 0
KCO1 200513Z 13008KT 17/08 A2986 RMK A01 T01720079  RH  054%=      5-min Rain = 0
KCO1 200514Z 14007KT 17/08 A2986 RMK A01 T01720079  RH  054%=      5-min Rain = 0
KCO1 200515Z 14007KT 17/08 A2986 RMK A01 T01720079  RH  054%=      5-min Rain = 0
KCO1 200516Z 14007KT 17/08 A2986 RMK A01 T01710079  RH  054%=      5-min Rain = 0
KCO1 200517Z 15007KT 17/08 A2986 RMK A01 T01710078  RH  054%=      5-min Rain = 0
KCO1 200518Z 15007KT 17/08 A2986 RMK A01 T01710078  RH  054%=      5-min Rain = 0
KCO1 200519Z 15007KT 17/08 A2986 RMK A01 T01710078  RH  054%=      5-min Rain = 0
KCO1 200520Z 15007KT 17/08 A2986 RMK A01 T01710078  RH  054%=      5-min Rain = 0
KCO1 200521Z 14007KT 17/08 A2986 RMK A01 T01720078  RH  054%=      5-min Rain = 0
KCO1 200522Z 14007KT 17/08 A2986 RMK A01 T01720077  RH  054%=      5-min Rain = 0
KCO1 200523Z 15007KT 17/08 A2986 RMK A01 T01720078  RH  054%=      5-min Rain = 0
KCO1 200524Z 15007KT 17/08 A2986 RMK A01 T01720078  RH  054%=      5-min Rain = 0
KCO1 200525Z 15005KT 17/08 A2986 RMK A01 T01720077  RH  054%=      5-min Rain = 0
KCO1 200526Z 16005KT 17/08 A2986 RMK A01 T01720077  RH  054%=      5-min Rain = 0
KCO1 200527Z 16004KT 17/08 A2986 RMK A01 T01720077  RH  054%=      5-min Rain = 0
KCO1 200528Z 17004KT 17/08 A2986 RMK A01 T01720077  RH  054%=      5-min Rain = 0
KCO1 200529Z 17005KT 17/08 A2986 RMK A01 T01720077  RH  054%=      5-min Rain = 0
KCO1 200530Z 18007KT 17/08 A2986 RMK A01 T01720077  RH  054%=      5-min Rain = 0
KCO1 200531Z 18006KT 17/08 A2986 RMK A01 T01720076  RH  053%=      5-min Rain = 0
KCO1 200532Z 19005KT 17/08 A2986 RMK A01 T01720076  RH  053%=      5-min Rain = 0
KCO1 200533Z 20005KT 17/08 A2987 RMK A01 T01720076  RH  053%=      5-min Rain = 0
KCO1 200534Z 22005KT 17/08 A2987 RMK A01 T01720076  RH  053%=      5-min Rain = 0
KCO1 200535Z 26008KT 17/08 A2988 RMK A01 T01710075  RH  053%=      5-min Rain = 0
KCO1 200536Z 28015KT 17/08 A299 RMK A01 T01710076  RH  054%=      5-min Rain = 0
KCO1 200537Z 29018KT 17/08 A2991 RMK A01 T01710075  RH  053%=      5-min Rain = 0
KCO1 200538Z 27014KT 17/07 A2991 RMK A01 T01710073  RH  052%=      5-min Rain = 0
KCO1 200539Z 27013KT 17/07 A2991 RMK A01 T01720071  RH  051%=      5-min Rain = 0
KCO1 200540Z 26013KT 17/07 A2991 RMK A01 T01740069  RH  050%=      5-min Rain = 0
KCO1 200541Z 27013KT 18/07 A2991 RMK A01 T01750068  RH  049%=      5-min Rain = 0
KCO1 200542Z 26017KT 18/07 A2991 RMK A01 T01770066  RH  048%=      5-min Rain = 0
KCO1 200543Z 26014G19KT 18/07 A2991 RMK A01 T01830065  RH  046%=      5-min Rain = 0
KCO1 200544Z 26014KT 19/06 A299 RMK A01 T01880064  RH  044%=      5-min Rain = 0
KCO1 200545Z 26012KT 19/06 A299 RMK A01 T01910063  RH  043%=      5-min Rain = 0
KCO1 200546Z 27010G15KT 19/06 A2991 RMK A01 T01920064  RH  043%=      5-min Rain = 0
KCO1 200547Z 27012KT 19/06 A2991 RMK A01 T01900064  RH  044%=      5-min Rain = 0
KCO1 200548Z 27013KT 19/07 A2991 RMK A01 T01870072  RH  047%=      5-min Rain = 0
KCO1 200549Z 27013KT 18/08 A2991 RMK A01 T01840081  RH  051%=      5-min Rain = 0
KCO1 200550Z 27013KT 18/09 A2991 RMK A01 T01800088  RH  055%=      5-min Rain = 0
KCO1 200551Z 27012KT 18/09 A2991 RMK A01 T01760093  RH  058%=      5-min Rain = 0
KCO1 200552Z 27012KT 17/09 A2991 RMK A01 T01740094  RH  059%=      5-min Rain = 0
KCO1 200553Z 27010KT 17/09 A2991 RMK A01 T01730094  RH  060%=      5-min Rain = 0
KCO1 200554Z 27009KT 17/10 A299 RMK A01 T01720096  RH  061%=      5-min Rain = 0
KCO1 200555Z 27009KT 17/10 A2991 RMK A01 T01710095  RH  061%=      5-min Rain = 0
KCO1 200556Z 27007KT 17/10 A2991 RMK A01 T01700095  RH  061%=      5-min Rain = 0
KCO1 200557Z 26008KT 17/10 A2991 RMK A01 T01700096  RH  062%=      5-min Rain = 0
KCO1 200558Z 26007KT 17/09 A2991 RMK A01 T01700094  RH  061%=      5-min Rain = 0
KCO1 200559Z 25007KT 17/09 A2991 RMK A01 T01690093  RH  061%=      5-min Rain = 0

Page generated in 0.1318 seconds.